<?xml version="1.0" encoding="UTF-8" standalone="no" ?>
<gpx xmlns="http://www.topografix.com/GPX/1/1" xmlns:xsi="http://www.w3.org/2001/XMLSchema-instance" xsi:schemaLocation="http://www.topografix.com/GPX/1/1 http://www.topografix.com/GPX/1/1/gpx.xsd" version="1.1" creator="VisuGPX - https://www.visugpx.com">
  <metadata>
    <name>Vergèze</name>
    <desc><![CDATA[File with points/tracks from Locus Map Classic/3.70.16]]></desc>
  </metadata>
  <trk>
    <name><![CDATA[2025-05-30 09:05]]></name>
    <trkseg>
      <trkpt lat="43.75357" lon="4.22575">
        <ele>51.979001408922</ele>
        <time>2025-05-30T07:05:43.218Z</time>
      </trkpt>
      <trkpt lat="43.75364" lon="4.22566">
        <ele>52.243836213918</ele>
        <time>2025-05-30T07:05:48.617Z</time>
      </trkpt>
      <trkpt lat="43.7537" lon="4.22565">
        <ele>52.214049722352</ele>
        <time>2025-05-30T07:05:54.059Z</time>
      </trkpt>
      <trkpt lat="43.75378" lon="4.22569">
        <ele>51.963057659342</ele>
        <time>2025-05-30T07:05:59.892Z</time>
      </trkpt>
      <trkpt lat="43.75384" lon="4.22575">
        <ele>51.732686784001</ele>
        <time>2025-05-30T07:06:05.659Z</time>
      </trkpt>
      <trkpt lat="43.75388" lon="4.22576">
        <ele>51.675197287321</ele>
        <time>2025-05-30T07:06:10.700Z</time>
      </trkpt>
      <trkpt lat="43.75393" lon="4.22579">
        <ele>51.577421774733</ele>
        <time>2025-05-30T07:06:16.036Z</time>
      </trkpt>
      <trkpt lat="43.75393" lon="4.22589">
        <ele>51.48971802713</ele>
        <time>2025-05-30T07:06:21.436Z</time>
      </trkpt>
      <trkpt lat="43.75399" lon="4.22596">
        <ele>51.445989449333</ele>
        <time>2025-05-30T07:06:26.780Z</time>
      </trkpt>
      <trkpt lat="43.75406" lon="4.22599">
        <ele>51.498920708834</ele>
        <time>2025-05-30T07:06:32.081Z</time>
      </trkpt>
      <trkpt lat="43.75412" lon="4.22606">
        <ele>51.573357789009</ele>
        <time>2025-05-30T07:06:37.435Z</time>
      </trkpt>
      <trkpt lat="43.7541" lon="4.22615">
        <ele>51.631937932261</ele>
        <time>2025-05-30T07:06:42.475Z</time>
      </trkpt>
      <trkpt lat="43.75416" lon="4.22623">
        <ele>51.818521832302</ele>
        <time>2025-05-30T07:06:47.811Z</time>
      </trkpt>
      <trkpt lat="43.75421" lon="4.22626">
        <ele>51.950710211452</ele>
        <time>2025-05-30T07:06:52.827Z</time>
      </trkpt>
      <trkpt lat="43.75424" lon="4.22633">
        <ele>52.141632283026</ele>
        <time>2025-05-30T07:06:58.270Z</time>
      </trkpt>
      <trkpt lat="43.75427" lon="4.22641">
        <ele>52.423669844163</ele>
        <time>2025-05-30T07:07:03.286Z</time>
      </trkpt>
      <trkpt lat="43.75431" lon="4.22646">
        <ele>52.604467929697</ele>
        <time>2025-05-30T07:07:08.402Z</time>
      </trkpt>
      <trkpt lat="43.7543" lon="4.22651">
        <ele>52.819083900263</ele>
        <time>2025-05-30T07:07:13.745Z</time>
      </trkpt>
      <trkpt lat="43.75435" lon="4.22658">
        <ele>53.375660478135</ele>
        <time>2025-05-30T07:07:18.977Z</time>
      </trkpt>
      <trkpt lat="43.75441" lon="4.22663">
        <ele>53.642610336879</ele>
        <time>2025-05-30T07:07:24.738Z</time>
      </trkpt>
      <trkpt lat="43.75443" lon="4.22669">
        <ele>54.117382910746</ele>
        <time>2025-05-30T07:07:30.423Z</time>
      </trkpt>
      <trkpt lat="43.75445" lon="4.22678">
        <ele>54.895653480189</ele>
        <time>2025-05-30T07:07:35.520Z</time>
      </trkpt>
      <trkpt lat="43.75447" lon="4.22686">
        <ele>55.59437794544</ele>
        <time>2025-05-30T07:07:40.963Z</time>
      </trkpt>
      <trkpt lat="43.75446" lon="4.22692">
        <ele>56.221181214041</ele>
        <time>2025-05-30T07:07:46.237Z</time>
      </trkpt>
      <trkpt lat="43.75447" lon="4.22701">
        <ele>57.101305615366</ele>
        <time>2025-05-30T07:07:51.698Z</time>
      </trkpt>
      <trkpt lat="43.75451" lon="4.22709">
        <ele>57.853187306962</ele>
        <time>2025-05-30T07:07:57.087Z</time>
      </trkpt>
      <trkpt lat="43.75453" lon="4.22717">
        <ele>58.56042805396</ele>
        <time>2025-05-30T07:08:02.362Z</time>
      </trkpt>
      <trkpt lat="43.75455" lon="4.22725">
        <ele>59.18426343695</ele>
        <time>2025-05-30T07:08:07.706Z</time>
      </trkpt>
      <trkpt lat="43.75458" lon="4.22732">
        <ele>59.796891887994</ele>
        <time>2025-05-30T07:08:13.505Z</time>
      </trkpt>
      <trkpt lat="43.75461" lon="4.22738">
        <ele>59.95396612437</ele>
        <time>2025-05-30T07:08:18.545Z</time>
      </trkpt>
      <trkpt lat="43.75464" lon="4.22747">
        <ele>60.063929006893</ele>
        <time>2025-05-30T07:08:23.993Z</time>
      </trkpt>
      <trkpt lat="43.75466" lon="4.22755">
        <ele>59.761947473987</ele>
        <time>2025-05-30T07:08:29.762Z</time>
      </trkpt>
      <trkpt lat="43.75466" lon="4.22766">
        <ele>58.80272599152</ele>
        <time>2025-05-30T07:08:35.334Z</time>
      </trkpt>
      <trkpt lat="43.75464" lon="4.22775">
        <ele>57.666461848546</ele>
        <time>2025-05-30T07:08:40.523Z</time>
      </trkpt>
      <trkpt lat="43.75462" lon="4.22782">
        <ele>56.846990806443</ele>
        <time>2025-05-30T07:08:45.540Z</time>
      </trkpt>
      <trkpt lat="43.75459" lon="4.22789">
        <ele>55.87016713184</ele>
        <time>2025-05-30T07:08:50.777Z</time>
      </trkpt>
      <trkpt lat="43.75456" lon="4.22797">
        <ele>54.879814833135</ele>
        <time>2025-05-30T07:08:56.754Z</time>
      </trkpt>
      <trkpt lat="43.75456" lon="4.22805">
        <ele>54.135208773101</ele>
        <time>2025-05-30T07:09:01.764Z</time>
      </trkpt>
      <trkpt lat="43.75456" lon="4.22813">
        <ele>53.364059210323</ele>
        <time>2025-05-30T07:09:06.779Z</time>
      </trkpt>
      <trkpt lat="43.75459" lon="4.22821">
        <ele>52.590641632776</ele>
        <time>2025-05-30T07:09:12.063Z</time>
      </trkpt>
      <trkpt lat="43.75464" lon="4.22827">
        <ele>51.92577774793</ele>
        <time>2025-05-30T07:09:17.640Z</time>
      </trkpt>
      <trkpt lat="43.75462" lon="4.22838">
        <ele>50.896849488847</ele>
        <time>2025-05-30T07:09:23.227Z</time>
      </trkpt>
      <trkpt lat="43.75462" lon="4.22847">
        <ele>50.124477932277</ele>
        <time>2025-05-30T07:09:28.772Z</time>
      </trkpt>
      <trkpt lat="43.75464" lon="4.2285">
        <ele>49.886730865871</ele>
        <time>2025-05-30T07:09:33.788Z</time>
      </trkpt>
      <trkpt lat="43.75466" lon="4.22857">
        <ele>49.347804738155</ele>
        <time>2025-05-30T07:09:39.225Z</time>
      </trkpt>
      <trkpt lat="43.75469" lon="4.22865">
        <ele>48.855853101833</ele>
        <time>2025-05-30T07:09:44.304Z</time>
      </trkpt>
      <trkpt lat="43.75468" lon="4.22875">
        <ele>48.37216543605</ele>
        <time>2025-05-30T07:09:49.798Z</time>
      </trkpt>
      <trkpt lat="43.75461" lon="4.22877">
        <ele>48.215508826874</ele>
        <time>2025-05-30T07:09:55.775Z</time>
      </trkpt>
      <trkpt lat="43.75453" lon="4.22873">
        <ele>48.021009828499</ele>
        <time>2025-05-30T07:10:00.791Z</time>
      </trkpt>
      <trkpt lat="43.75447" lon="4.22871">
        <ele>47.859873391954</ele>
        <time>2025-05-30T07:10:06.102Z</time>
      </trkpt>
      <trkpt lat="43.75442" lon="4.22876">
        <ele>47.663153330762</ele>
        <time>2025-05-30T07:10:11.305Z</time>
      </trkpt>
      <trkpt lat="43.75438" lon="4.22884">
        <ele>47.234728987072</ele>
        <time>2025-05-30T07:10:16.796Z</time>
      </trkpt>
      <trkpt lat="43.75438" lon="4.22894">
        <ele>46.93698236237</ele>
        <time>2025-05-30T07:10:22.244Z</time>
      </trkpt>
      <trkpt lat="43.75437" lon="4.229">
        <ele>46.827693393487</ele>
        <time>2025-05-30T07:10:27.260Z</time>
      </trkpt>
      <trkpt lat="43.75437" lon="4.22907">
        <ele>46.778916812476</ele>
        <time>2025-05-30T07:10:32.840Z</time>
      </trkpt>
      <trkpt lat="43.75436" lon="4.22915">
        <ele>46.849630845177</ele>
        <time>2025-05-30T07:10:38.104Z</time>
      </trkpt>
      <trkpt lat="43.75436" lon="4.22921">
        <ele>46.967871883333</ele>
        <time>2025-05-30T07:10:43.803Z</time>
      </trkpt>
      <trkpt lat="43.75437" lon="4.2292">
        <ele>46.970086214612</ele>
        <time>2025-05-30T07:10:55.757Z</time>
      </trkpt>
      <trkpt lat="43.75437" lon="4.22923">
        <ele>47.025412940247</ele>
        <time>2025-05-30T07:11:02.801Z</time>
      </trkpt>
      <trkpt lat="43.75439" lon="4.22934">
        <ele>47.63728263758</ele>
        <time>2025-05-30T07:11:07.819Z</time>
      </trkpt>
      <trkpt lat="43.75443" lon="4.22945">
        <ele>48.112252069149</ele>
        <time>2025-05-30T07:11:13.484Z</time>
      </trkpt>
      <trkpt lat="43.75446" lon="4.22951">
        <ele>48.358992389229</ele>
        <time>2025-05-30T07:11:18.625Z</time>
      </trkpt>
      <trkpt lat="43.7545" lon="4.22956">
        <ele>48.62305656249</ele>
        <time>2025-05-30T07:11:24.702Z</time>
      </trkpt>
      <trkpt lat="43.75455" lon="4.22964">
        <ele>48.968060927229</ele>
        <time>2025-05-30T07:11:29.804Z</time>
      </trkpt>
      <trkpt lat="43.75457" lon="4.22975">
        <ele>49.299395058913</ele>
        <time>2025-05-30T07:11:35.302Z</time>
      </trkpt>
      <trkpt lat="43.75456" lon="4.22984">
        <ele>50.28890480045</ele>
        <time>2025-05-30T07:11:40.797Z</time>
      </trkpt>
      <trkpt lat="43.7546" lon="4.22991">
        <ele>51.058654953674</ele>
        <time>2025-05-30T07:11:46.085Z</time>
      </trkpt>
      <trkpt lat="43.75458" lon="4.22999">
        <ele>51.795640370673</ele>
        <time>2025-05-30T07:11:51.446Z</time>
      </trkpt>
      <trkpt lat="43.75455" lon="4.23006">
        <ele>52.463621344023</ele>
        <time>2025-05-30T07:11:56.587Z</time>
      </trkpt>
      <trkpt lat="43.75454" lon="4.2301">
        <ele>52.994150526051</ele>
        <time>2025-05-30T07:12:01.763Z</time>
      </trkpt>
      <trkpt lat="43.7545" lon="4.23019">
        <ele>53.890098350641</ele>
        <time>2025-05-30T07:12:07.322Z</time>
      </trkpt>
      <trkpt lat="43.75447" lon="4.23029">
        <ele>54.74680396387</ele>
        <time>2025-05-30T07:12:12.816Z</time>
      </trkpt>
      <trkpt lat="43.75447" lon="4.23031">
        <ele>54.899538111839</ele>
        <time>2025-05-30T07:12:18.164Z</time>
      </trkpt>
      <trkpt lat="43.7545" lon="4.23034">
        <ele>55.284107372478</ele>
        <time>2025-05-30T07:12:23.547Z</time>
      </trkpt>
      <trkpt lat="43.75451" lon="4.23042">
        <ele>56.011889965813</ele>
        <time>2025-05-30T07:12:28.825Z</time>
      </trkpt>
      <trkpt lat="43.75452" lon="4.23059">
        <ele>57.435906079007</ele>
        <time>2025-05-30T07:12:34.387Z</time>
      </trkpt>
      <trkpt lat="43.75453" lon="4.23071">
        <ele>58.434278086087</ele>
        <time>2025-05-30T07:12:39.766Z</time>
      </trkpt>
      <trkpt lat="43.75455" lon="4.23079">
        <ele>59.06197084065</ele>
        <time>2025-05-30T07:12:45.343Z</time>
      </trkpt>
      <trkpt lat="43.75457" lon="4.23085">
        <ele>59.585780568888</ele>
        <time>2025-05-30T07:12:50.609Z</time>
      </trkpt>
      <trkpt lat="43.75456" lon="4.23095">
        <ele>60.24723512908</ele>
        <time>2025-05-30T07:12:55.829Z</time>
      </trkpt>
      <trkpt lat="43.75455" lon="4.23104">
        <ele>60.807673586403</ele>
        <time>2025-05-30T07:13:01.149Z</time>
      </trkpt>
      <trkpt lat="43.75455" lon="4.23111">
        <ele>61.22340001274</ele>
        <time>2025-05-30T07:13:06.245Z</time>
      </trkpt>
      <trkpt lat="43.75457" lon="4.2312">
        <ele>61.496851274654</ele>
        <time>2025-05-30T07:13:11.465Z</time>
      </trkpt>
      <trkpt lat="43.75457" lon="4.23129">
        <ele>61.761086389988</ele>
        <time>2025-05-30T07:13:16.525Z</time>
      </trkpt>
      <trkpt lat="43.75457" lon="4.23135">
        <ele>61.904165025444</ele>
        <time>2025-05-30T07:13:38.924Z</time>
      </trkpt>
      <trkpt lat="43.75457" lon="4.23135">
        <ele>61.904165025444</ele>
        <time>2025-05-30T07:13:38.924Z</time>
      </trkpt>
      <trkpt lat="43.75456" lon="4.23135">
        <ele>61.902188614011</ele>
        <time>2025-05-30T07:13:43.116Z</time>
      </trkpt>
      <trkpt lat="43.75456" lon="4.23136">
        <ele>61.909227649302</ele>
        <time>2025-05-30T07:13:46.192Z</time>
      </trkpt>
      <trkpt lat="43.75456" lon="4.23136">
        <ele>61.909227649302</ele>
        <time>2025-05-30T07:13:46.192Z</time>
      </trkpt>
      <trkpt lat="43.75449" lon="4.23141">
        <ele>61.889525543818</ele>
        <time>2025-05-30T07:17:34.553Z</time>
      </trkpt>
      <trkpt lat="43.75442" lon="4.23146">
        <ele>61.624855358387</ele>
        <time>2025-05-30T07:17:39.647Z</time>
      </trkpt>
      <trkpt lat="43.75436" lon="4.23147">
        <ele>61.239651996726</ele>
        <time>2025-05-30T07:17:45.607Z</time>
      </trkpt>
      <trkpt lat="43.75427" lon="4.2315">
        <ele>60.882938421885</ele>
        <time>2025-05-30T07:17:51.085Z</time>
      </trkpt>
      <trkpt lat="43.75421" lon="4.23152">
        <ele>60.625638133327</ele>
        <time>2025-05-30T07:17:56.304Z</time>
      </trkpt>
      <trkpt lat="43.75415" lon="4.2315">
        <ele>60.393518736424</ele>
        <time>2025-05-30T07:18:01.320Z</time>
      </trkpt>
      <trkpt lat="43.75408" lon="4.23149">
        <ele>60.158403404311</ele>
        <time>2025-05-30T07:18:06.763Z</time>
      </trkpt>
      <trkpt lat="43.75402" lon="4.23149">
        <ele>60.06400139502</ele>
        <time>2025-05-30T07:18:12.449Z</time>
      </trkpt>
      <trkpt lat="43.75395" lon="4.23151">
        <ele>59.869314049549</ele>
        <time>2025-05-30T07:18:17.831Z</time>
      </trkpt>
      <trkpt lat="43.75389" lon="4.23155">
        <ele>59.669301203856</ele>
        <time>2025-05-30T07:18:23.227Z</time>
      </trkpt>
      <trkpt lat="43.75384" lon="4.23161">
        <ele>59.664829048791</ele>
        <time>2025-05-30T07:18:28.671Z</time>
      </trkpt>
      <trkpt lat="43.75376" lon="4.2316">
        <ele>59.636975825879</ele>
        <time>2025-05-30T07:18:33.871Z</time>
      </trkpt>
      <trkpt lat="43.75372" lon="4.23157">
        <ele>59.605326357193</ele>
        <time>2025-05-30T07:18:39.646Z</time>
      </trkpt>
      <trkpt lat="43.75367" lon="4.23154">
        <ele>59.518230842808</ele>
        <time>2025-05-30T07:18:44.757Z</time>
      </trkpt>
      <trkpt lat="43.75361" lon="4.23151">
        <ele>59.375717503682</ele>
        <time>2025-05-30T07:18:50.727Z</time>
      </trkpt>
      <trkpt lat="43.75354" lon="4.23148">
        <ele>59.206743536478</ele>
        <time>2025-05-30T07:18:56.096Z</time>
      </trkpt>
      <trkpt lat="43.75347" lon="4.23147">
        <ele>59.024716130749</ele>
        <time>2025-05-30T07:19:01.330Z</time>
      </trkpt>
      <trkpt lat="43.75342" lon="4.23147">
        <ele>58.820678488012</ele>
        <time>2025-05-30T07:19:06.529Z</time>
      </trkpt>
      <trkpt lat="43.75333" lon="4.23145">
        <ele>58.517214191165</ele>
        <time>2025-05-30T07:19:12.109Z</time>
      </trkpt>
      <trkpt lat="43.75325" lon="4.23142">
        <ele>58.199082146983</ele>
        <time>2025-05-30T07:19:17.525Z</time>
      </trkpt>
      <trkpt lat="43.75317" lon="4.23138">
        <ele>57.82797838828</ele>
        <time>2025-05-30T07:19:22.858Z</time>
      </trkpt>
      <trkpt lat="43.75311" lon="4.23137">
        <ele>57.547971931654</ele>
        <time>2025-05-30T07:19:28.107Z</time>
      </trkpt>
      <trkpt lat="43.75306" lon="4.23137">
        <ele>57.338496207768</ele>
        <time>2025-05-30T07:19:33.665Z</time>
      </trkpt>
      <trkpt lat="43.75298" lon="4.23134">
        <ele>57.015097872769</ele>
        <time>2025-05-30T07:19:38.708Z</time>
      </trkpt>
      <trkpt lat="43.75291" lon="4.2313">
        <ele>56.769068005379</ele>
        <time>2025-05-30T07:19:44.231Z</time>
      </trkpt>
      <trkpt lat="43.75284" lon="4.23128">
        <ele>56.444134343458</ele>
        <time>2025-05-30T07:19:49.709Z</time>
      </trkpt>
      <trkpt lat="43.75276" lon="4.23128">
        <ele>55.95899668131</ele>
        <time>2025-05-30T07:19:54.769Z</time>
      </trkpt>
      <trkpt lat="43.75268" lon="4.2313">
        <ele>55.506665625684</ele>
        <time>2025-05-30T07:19:59.785Z</time>
      </trkpt>
      <trkpt lat="43.75267" lon="4.23137">
        <ele>55.2942974523</ele>
        <time>2025-05-30T07:20:05.125Z</time>
      </trkpt>
      <trkpt lat="43.75269" lon="4.23142">
        <ele>55.284891910963</ele>
        <time>2025-05-30T07:20:10.388Z</time>
      </trkpt>
      <trkpt lat="43.75272" lon="4.23148">
        <ele>55.297971578262</ele>
        <time>2025-05-30T07:20:15.769Z</time>
      </trkpt>
      <trkpt lat="43.75276" lon="4.23154">
        <ele>55.335573670509</ele>
        <time>2025-05-30T07:20:20.812Z</time>
      </trkpt>
      <trkpt lat="43.7528" lon="4.23161">
        <ele>55.356860896105</ele>
        <time>2025-05-30T07:20:25.926Z</time>
      </trkpt>
      <trkpt lat="43.75287" lon="4.23167">
        <ele>55.561806711004</ele>
        <time>2025-05-30T07:20:31.325Z</time>
      </trkpt>
      <trkpt lat="43.75295" lon="4.23171">
        <ele>55.841617299624</ele>
        <time>2025-05-30T07:20:36.830Z</time>
      </trkpt>
      <trkpt lat="43.75303" lon="4.23174">
        <ele>56.135301625415</ele>
        <time>2025-05-30T07:20:42.293Z</time>
      </trkpt>
      <trkpt lat="43.75308" lon="4.23181">
        <ele>56.135997563929</ele>
        <time>2025-05-30T07:20:47.584Z</time>
      </trkpt>
      <trkpt lat="43.75311" lon="4.2319">
        <ele>56.054592281806</ele>
        <time>2025-05-30T07:20:53.106Z</time>
      </trkpt>
      <trkpt lat="43.75314" lon="4.23197">
        <ele>55.981948774929</ele>
        <time>2025-05-30T07:20:58.329Z</time>
      </trkpt>
      <trkpt lat="43.75318" lon="4.23203">
        <ele>56.035285962506</ele>
        <time>2025-05-30T07:21:03.565Z</time>
      </trkpt>
      <trkpt lat="43.75322" lon="4.23211">
        <ele>56.112113602196</ele>
        <time>2025-05-30T07:21:08.838Z</time>
      </trkpt>
      <trkpt lat="43.75329" lon="4.23218">
        <ele>56.300291137336</ele>
        <time>2025-05-30T07:21:14.072Z</time>
      </trkpt>
      <trkpt lat="43.75334" lon="4.23223">
        <ele>56.383224250932</ele>
        <time>2025-05-30T07:21:19.315Z</time>
      </trkpt>
      <trkpt lat="43.75339" lon="4.23229">
        <ele>56.452709428493</ele>
        <time>2025-05-30T07:21:24.439Z</time>
      </trkpt>
      <trkpt lat="43.75344" lon="4.23235">
        <ele>56.589239987899</ele>
        <time>2025-05-30T07:21:29.775Z</time>
      </trkpt>
      <trkpt lat="43.7535" lon="4.2324">
        <ele>56.772284144566</ele>
        <time>2025-05-30T07:21:35.407Z</time>
      </trkpt>
      <trkpt lat="43.75355" lon="4.23247">
        <ele>56.785361233242</ele>
        <time>2025-05-30T07:21:40.645Z</time>
      </trkpt>
      <trkpt lat="43.75359" lon="4.23257">
        <ele>56.773798480117</ele>
        <time>2025-05-30T07:21:45.784Z</time>
      </trkpt>
      <trkpt lat="43.7536" lon="4.23272">
        <ele>56.660994607123</ele>
        <time>2025-05-30T07:21:51.203Z</time>
      </trkpt>
      <trkpt lat="43.75362" lon="4.2328">
        <ele>56.69301855375</ele>
        <time>2025-05-30T07:21:56.349Z</time>
      </trkpt>
      <trkpt lat="43.75366" lon="4.23292">
        <ele>56.699541120206</ele>
        <time>2025-05-30T07:22:01.724Z</time>
      </trkpt>
      <trkpt lat="43.75373" lon="4.23298">
        <ele>56.831092402832</ele>
        <time>2025-05-30T07:22:07.069Z</time>
      </trkpt>
      <trkpt lat="43.75378" lon="4.23305">
        <ele>57.067471996339</ele>
        <time>2025-05-30T07:22:12.785Z</time>
      </trkpt>
      <trkpt lat="43.75384" lon="4.23305">
        <ele>57.316880223058</ele>
        <time>2025-05-30T07:22:17.801Z</time>
      </trkpt>
      <trkpt lat="43.7539" lon="4.23312">
        <ele>57.466968312122</ele>
        <time>2025-05-30T07:22:22.802Z</time>
      </trkpt>
      <trkpt lat="43.75396" lon="4.23322">
        <ele>57.446477494909</ele>
        <time>2025-05-30T07:22:27.833Z</time>
      </trkpt>
      <trkpt lat="43.754" lon="4.23335">
        <ele>57.392440215999</ele>
        <time>2025-05-30T07:22:33.661Z</time>
      </trkpt>
      <trkpt lat="43.75403" lon="4.23347">
        <ele>57.408725089942</ele>
        <time>2025-05-30T07:22:39.504Z</time>
      </trkpt>
      <trkpt lat="43.75408" lon="4.23356">
        <ele>57.332672590302</ele>
        <time>2025-05-30T07:22:44.825Z</time>
      </trkpt>
      <trkpt lat="43.75408" lon="4.23365">
        <ele>57.255649724527</ele>
        <time>2025-05-30T07:22:50.363Z</time>
      </trkpt>
      <trkpt lat="43.75403" lon="4.23369">
        <ele>57.288413154224</ele>
        <time>2025-05-30T07:22:55.549Z</time>
      </trkpt>
      <trkpt lat="43.75397" lon="4.23373">
        <ele>57.36561399603</ele>
        <time>2025-05-30T07:23:00.810Z</time>
      </trkpt>
      <trkpt lat="43.7539" lon="4.23374">
        <ele>57.39142003477</ele>
        <time>2025-05-30T07:23:05.826Z</time>
      </trkpt>
      <trkpt lat="43.75384" lon="4.2338">
        <ele>57.451585447691</ele>
        <time>2025-05-30T07:23:11.647Z</time>
      </trkpt>
      <trkpt lat="43.75379" lon="4.23384">
        <ele>57.503928760535</ele>
        <time>2025-05-30T07:23:16.819Z</time>
      </trkpt>
      <trkpt lat="43.75375" lon="4.23391">
        <ele>57.594148051246</ele>
        <time>2025-05-30T07:23:21.834Z</time>
      </trkpt>
      <trkpt lat="43.7537" lon="4.23401">
        <ele>57.786883955476</ele>
        <time>2025-05-30T07:23:27.849Z</time>
      </trkpt>
      <trkpt lat="43.75363" lon="4.23411">
        <ele>57.973238536986</ele>
        <time>2025-05-30T07:23:33.603Z</time>
      </trkpt>
      <trkpt lat="43.75359" lon="4.23414">
        <ele>58.028429831026</ele>
        <time>2025-05-30T07:23:39.028Z</time>
      </trkpt>
      <trkpt lat="43.75353" lon="4.23418">
        <ele>58.069808813623</ele>
        <time>2025-05-30T07:23:44.364Z</time>
      </trkpt>
      <trkpt lat="43.75344" lon="4.23423">
        <ele>58.145901239997</ele>
        <time>2025-05-30T07:23:49.795Z</time>
      </trkpt>
      <trkpt lat="43.75337" lon="4.23429">
        <ele>58.253155507589</ele>
        <time>2025-05-30T07:23:54.929Z</time>
      </trkpt>
      <trkpt lat="43.75331" lon="4.23437">
        <ele>58.422566285638</ele>
        <time>2025-05-30T07:24:00.301Z</time>
      </trkpt>
      <trkpt lat="43.75325" lon="4.2344">
        <ele>58.572036080334</ele>
        <time>2025-05-30T07:24:05.362Z</time>
      </trkpt>
      <trkpt lat="43.75319" lon="4.23445">
        <ele>58.668636323531</ele>
        <time>2025-05-30T07:24:10.743Z</time>
      </trkpt>
      <trkpt lat="43.75311" lon="4.23446">
        <ele>58.74341070074</ele>
        <time>2025-05-30T07:24:15.836Z</time>
      </trkpt>
      <trkpt lat="43.75307" lon="4.23448">
        <ele>58.764119924844</ele>
        <time>2025-05-30T07:24:21.469Z</time>
      </trkpt>
      <trkpt lat="43.75302" lon="4.23453">
        <ele>58.79948500699</ele>
        <time>2025-05-30T07:24:26.845Z</time>
      </trkpt>
      <trkpt lat="43.7529" lon="4.23454">
        <ele>58.450660610532</ele>
        <time>2025-05-30T07:24:32.344Z</time>
      </trkpt>
      <trkpt lat="43.75281" lon="4.23456">
        <ele>57.699206831426</ele>
        <time>2025-05-30T07:24:37.743Z</time>
      </trkpt>
      <trkpt lat="43.75276" lon="4.23459">
        <ele>57.060465665951</ele>
        <time>2025-05-30T07:24:42.853Z</time>
      </trkpt>
      <trkpt lat="43.75269" lon="4.23468">
        <ele>56.407653485694</ele>
        <time>2025-05-30T07:24:48.663Z</time>
      </trkpt>
      <trkpt lat="43.75264" lon="4.23475">
        <ele>55.942783753673</ele>
        <time>2025-05-30T07:24:53.846Z</time>
      </trkpt>
      <trkpt lat="43.75258" lon="4.23482">
        <ele>55.406905312995</ele>
        <time>2025-05-30T07:24:59.248Z</time>
      </trkpt>
      <trkpt lat="43.75252" lon="4.23486">
        <ele>54.861829167924</ele>
        <time>2025-05-30T07:25:04.411Z</time>
      </trkpt>
      <trkpt lat="43.75245" lon="4.23493">
        <ele>54.0361529899</ele>
        <time>2025-05-30T07:25:09.802Z</time>
      </trkpt>
      <trkpt lat="43.75243" lon="4.235">
        <ele>53.496946401348</ele>
        <time>2025-05-30T07:25:14.869Z</time>
      </trkpt>
      <trkpt lat="43.75239" lon="4.23507">
        <ele>52.826115132755</ele>
        <time>2025-05-30T07:25:20.288Z</time>
      </trkpt>
      <trkpt lat="43.75232" lon="4.23512">
        <ele>52.28808101636</ele>
        <time>2025-05-30T07:25:25.589Z</time>
      </trkpt>
      <trkpt lat="43.75227" lon="4.23516">
        <ele>51.937299807343</ele>
        <time>2025-05-30T07:25:30.809Z</time>
      </trkpt>
      <trkpt lat="43.7522" lon="4.23522">
        <ele>51.447412373731</ele>
        <time>2025-05-30T07:25:36.642Z</time>
      </trkpt>
      <trkpt lat="43.75214" lon="4.23529">
        <ele>50.760423989724</ele>
        <time>2025-05-30T07:25:42.040Z</time>
      </trkpt>
      <trkpt lat="43.75209" lon="4.23534">
        <ele>50.226608721922</ele>
        <time>2025-05-30T07:25:47.403Z</time>
      </trkpt>
      <trkpt lat="43.75203" lon="4.2354">
        <ele>49.684412162791</ele>
        <time>2025-05-30T07:25:52.545Z</time>
      </trkpt>
      <trkpt lat="43.75196" lon="4.23546">
        <ele>49.438295201723</ele>
        <time>2025-05-30T07:25:58.040Z</time>
      </trkpt>
      <trkpt lat="43.75192" lon="4.23553">
        <ele>49.340675632028</ele>
        <time>2025-05-30T07:26:03.786Z</time>
      </trkpt>
      <trkpt lat="43.75186" lon="4.23555">
        <ele>49.230347545122</ele>
        <time>2025-05-30T07:26:09.306Z</time>
      </trkpt>
      <trkpt lat="43.75178" lon="4.2356">
        <ele>49.125680065743</ele>
        <time>2025-05-30T07:26:14.856Z</time>
      </trkpt>
      <trkpt lat="43.75171" lon="4.23564">
        <ele>49.164415122861</ele>
        <time>2025-05-30T07:26:20.533Z</time>
      </trkpt>
      <trkpt lat="43.75167" lon="4.2357">
        <ele>49.374036849636</ele>
        <time>2025-05-30T07:26:25.848Z</time>
      </trkpt>
      <trkpt lat="43.75162" lon="4.23577">
        <ele>49.69940554741</ele>
        <time>2025-05-30T07:26:31.825Z</time>
      </trkpt>
      <trkpt lat="43.75165" lon="4.23581">
        <ele>49.864097751421</ele>
        <time>2025-05-30T07:26:36.958Z</time>
      </trkpt>
      <trkpt lat="43.75171" lon="4.2358">
        <ele>49.749357107783</ele>
        <time>2025-05-30T07:26:42.224Z</time>
      </trkpt>
      <trkpt lat="43.75176" lon="4.23585">
        <ele>49.878302570426</ele>
        <time>2025-05-30T07:26:47.740Z</time>
      </trkpt>
      <trkpt lat="43.75182" lon="4.23592">
        <ele>50.027497286423</ele>
        <time>2025-05-30T07:26:53.536Z</time>
      </trkpt>
      <trkpt lat="43.75187" lon="4.236">
        <ele>50.261720182519</ele>
        <time>2025-05-30T07:26:59.397Z</time>
      </trkpt>
      <trkpt lat="43.75193" lon="4.23608">
        <ele>50.302686151737</ele>
        <time>2025-05-30T07:27:04.908Z</time>
      </trkpt>
      <trkpt lat="43.75202" lon="4.23615">
        <ele>50.170319611011</ele>
        <time>2025-05-30T07:27:10.461Z</time>
      </trkpt>
      <trkpt lat="43.7521" lon="4.23617">
        <ele>49.836062605649</ele>
        <time>2025-05-30T07:27:15.521Z</time>
      </trkpt>
      <trkpt lat="43.75218" lon="4.23617">
        <ele>49.360563847536</ele>
        <time>2025-05-30T07:27:20.810Z</time>
      </trkpt>
      <trkpt lat="43.75224" lon="4.23625">
        <ele>49.105324434343</ele>
        <time>2025-05-30T07:27:26.300Z</time>
      </trkpt>
      <trkpt lat="43.75228" lon="4.23634">
        <ele>48.995611408165</ele>
        <time>2025-05-30T07:27:31.636Z</time>
      </trkpt>
      <trkpt lat="43.75232" lon="4.2364">
        <ele>48.724602515425</ele>
        <time>2025-05-30T07:27:36.818Z</time>
      </trkpt>
      <trkpt lat="43.75236" lon="4.23649">
        <ele>48.469068568837</ele>
        <time>2025-05-30T07:27:42.557Z</time>
      </trkpt>
      <trkpt lat="43.7524" lon="4.23657">
        <ele>48.186955642725</ele>
        <time>2025-05-30T07:27:47.810Z</time>
      </trkpt>
      <trkpt lat="43.75243" lon="4.23664">
        <ele>47.635584850775</ele>
        <time>2025-05-30T07:27:53.498Z</time>
      </trkpt>
      <trkpt lat="43.75249" lon="4.2367">
        <ele>46.658051948755</ele>
        <time>2025-05-30T07:27:58.840Z</time>
      </trkpt>
      <trkpt lat="43.75256" lon="4.23671">
        <ele>46.227879372256</ele>
        <time>2025-05-30T07:28:04.123Z</time>
      </trkpt>
      <trkpt lat="43.75258" lon="4.23684">
        <ele>45.593550456368</ele>
        <time>2025-05-30T07:28:09.521Z</time>
      </trkpt>
      <trkpt lat="43.75262" lon="4.23693">
        <ele>45.051986294771</ele>
        <time>2025-05-30T07:28:14.858Z</time>
      </trkpt>
      <trkpt lat="43.75265" lon="4.237">
        <ele>44.929884267605</ele>
        <time>2025-05-30T07:28:20.123Z</time>
      </trkpt>
      <trkpt lat="43.75266" lon="4.23711">
        <ele>44.755724992473</ele>
        <time>2025-05-30T07:28:25.441Z</time>
      </trkpt>
      <trkpt lat="43.75268" lon="4.23721">
        <ele>45.13295658164</ele>
        <time>2025-05-30T07:28:30.824Z</time>
      </trkpt>
      <trkpt lat="43.75272" lon="4.23732">
        <ele>45.569135242169</ele>
        <time>2025-05-30T07:28:36.478Z</time>
      </trkpt>
      <trkpt lat="43.75274" lon="4.23742">
        <ele>45.679478962355</ele>
        <time>2025-05-30T07:28:41.829Z</time>
      </trkpt>
      <trkpt lat="43.75276" lon="4.23752">
        <ele>45.517584216201</ele>
        <time>2025-05-30T07:28:47.639Z</time>
      </trkpt>
      <trkpt lat="43.7528" lon="4.23759">
        <ele>45.415579172624</ele>
        <time>2025-05-30T07:28:52.821Z</time>
      </trkpt>
      <trkpt lat="43.75284" lon="4.23767">
        <ele>45.26886910067</ele>
        <time>2025-05-30T07:28:57.837Z</time>
      </trkpt>
      <trkpt lat="43.75288" lon="4.23774">
        <ele>45.051782745136</ele>
        <time>2025-05-30T07:29:03.184Z</time>
      </trkpt>
      <trkpt lat="43.75294" lon="4.2378">
        <ele>44.849708963927</ele>
        <time>2025-05-30T07:29:08.439Z</time>
      </trkpt>
      <trkpt lat="43.75298" lon="4.23785">
        <ele>44.698329137964</ele>
        <time>2025-05-30T07:29:13.439Z</time>
      </trkpt>
      <trkpt lat="43.75302" lon="4.23792">
        <ele>44.438234075736</ele>
        <time>2025-05-30T07:29:18.540Z</time>
      </trkpt>
      <trkpt lat="43.75306" lon="4.23801">
        <ele>44.006630533295</ele>
        <time>2025-05-30T07:29:23.876Z</time>
      </trkpt>
      <trkpt lat="43.75309" lon="4.23809">
        <ele>43.646341324614</ele>
        <time>2025-05-30T07:29:29.163Z</time>
      </trkpt>
      <trkpt lat="43.75312" lon="4.23817">
        <ele>43.300201835627</ele>
        <time>2025-05-30T07:29:34.303Z</time>
      </trkpt>
      <trkpt lat="43.75316" lon="4.23823">
        <ele>42.917719877972</ele>
        <time>2025-05-30T07:29:39.780Z</time>
      </trkpt>
      <trkpt lat="43.75319" lon="4.23831">
        <ele>42.452472837812</ele>
        <time>2025-05-30T07:29:44.794Z</time>
      </trkpt>
      <trkpt lat="43.75322" lon="4.23839">
        <ele>41.952159269472</ele>
        <time>2025-05-30T07:29:50.624Z</time>
      </trkpt>
      <trkpt lat="43.75326" lon="4.23847">
        <ele>41.484322192221</ele>
        <time>2025-05-30T07:29:55.785Z</time>
      </trkpt>
      <trkpt lat="43.7533" lon="4.23854">
        <ele>41.095552328209</ele>
        <time>2025-05-30T07:30:01.418Z</time>
      </trkpt>
      <trkpt lat="43.75334" lon="4.2386">
        <ele>40.745649390141</ele>
        <time>2025-05-30T07:30:06.797Z</time>
      </trkpt>
      <trkpt lat="43.75338" lon="4.2387">
        <ele>40.490355188257</ele>
        <time>2025-05-30T07:30:12.117Z</time>
      </trkpt>
      <trkpt lat="43.75341" lon="4.23879">
        <ele>40.498783274081</ele>
        <time>2025-05-30T07:30:17.523Z</time>
      </trkpt>
      <trkpt lat="43.75339" lon="4.23887">
        <ele>40.434525462466</ele>
        <time>2025-05-30T07:30:22.892Z</time>
      </trkpt>
      <trkpt lat="43.75343" lon="4.23888">
        <ele>40.633713973879</ele>
        <time>2025-05-30T07:30:28.497Z</time>
      </trkpt>
      <trkpt lat="43.75344" lon="4.23899">
        <ele>40.934136823911</ele>
        <time>2025-05-30T07:30:33.860Z</time>
      </trkpt>
      <trkpt lat="43.75338" lon="4.23914">
        <ele>41.584214681614</ele>
        <time>2025-05-30T07:30:39.346Z</time>
      </trkpt>
      <trkpt lat="43.75327" lon="4.23921">
        <ele>41.51924496152</ele>
        <time>2025-05-30T07:30:44.796Z</time>
      </trkpt>
      <trkpt lat="43.75318" lon="4.23918">
        <ele>40.897012786327</ele>
        <time>2025-05-30T07:30:50.544Z</time>
      </trkpt>
      <trkpt lat="43.75312" lon="4.23908">
        <ele>40.046286488423</ele>
        <time>2025-05-30T07:30:55.799Z</time>
      </trkpt>
      <trkpt lat="43.75308" lon="4.23903">
        <ele>39.665738779616</ele>
        <time>2025-05-30T07:31:01.740Z</time>
      </trkpt>
      <trkpt lat="43.753" lon="4.23904">
        <ele>39.448005718237</ele>
        <time>2025-05-30T07:31:06.767Z</time>
      </trkpt>
      <trkpt lat="43.75296" lon="4.23912">
        <ele>39.572501855932</ele>
        <time>2025-05-30T07:31:12.119Z</time>
      </trkpt>
      <trkpt lat="43.75292" lon="4.23914">
        <ele>39.464066900161</ele>
        <time>2025-05-30T07:31:17.643Z</time>
      </trkpt>
      <trkpt lat="43.75287" lon="4.23917">
        <ele>39.272725712625</ele>
        <time>2025-05-30T07:31:22.798Z</time>
      </trkpt>
      <trkpt lat="43.75282" lon="4.23927">
        <ele>39.372520352677</ele>
        <time>2025-05-30T07:31:27.861Z</time>
      </trkpt>
      <trkpt lat="43.75278" lon="4.23934">
        <ele>39.318350617959</ele>
        <time>2025-05-30T07:31:33.791Z</time>
      </trkpt>
      <trkpt lat="43.75273" lon="4.23936">
        <ele>39.114397863025</ele>
        <time>2025-05-30T07:31:39.503Z</time>
      </trkpt>
      <trkpt lat="43.75269" lon="4.23938">
        <ele>38.922534878268</ele>
        <time>2025-05-30T07:31:44.563Z</time>
      </trkpt>
      <trkpt lat="43.7526" lon="4.2394">
        <ele>38.606085791275</ele>
        <time>2025-05-30T07:31:50.522Z</time>
      </trkpt>
      <trkpt lat="43.75252" lon="4.23943">
        <ele>38.726737299129</ele>
        <time>2025-05-30T07:31:55.775Z</time>
      </trkpt>
      <trkpt lat="43.75249" lon="4.23951">
        <ele>38.537376874935</ele>
        <time>2025-05-30T07:32:01.326Z</time>
      </trkpt>
      <trkpt lat="43.75245" lon="4.23957">
        <ele>39.273107825424</ele>
        <time>2025-05-30T07:32:06.342Z</time>
      </trkpt>
      <trkpt lat="43.75245" lon="4.23964">
        <ele>39.066433428377</ele>
        <time>2025-05-30T07:32:11.357Z</time>
      </trkpt>
      <trkpt lat="43.75248" lon="4.23971">
        <ele>38.396451556706</ele>
        <time>2025-05-30T07:32:16.372Z</time>
      </trkpt>
      <trkpt lat="43.75251" lon="4.23979">
        <ele>38.144049005047</ele>
        <time>2025-05-30T07:32:21.799Z</time>
      </trkpt>
      <trkpt lat="43.75246" lon="4.23985">
        <ele>38.599600388561</ele>
        <time>2025-05-30T07:32:27.181Z</time>
      </trkpt>
      <trkpt lat="43.75241" lon="4.23994">
        <ele>39.087957924505</ele>
        <time>2025-05-30T07:32:32.357Z</time>
      </trkpt>
      <trkpt lat="43.75236" lon="4.24001">
        <ele>39.503379730855</ele>
        <time>2025-05-30T07:32:37.823Z</time>
      </trkpt>
      <trkpt lat="43.75234" lon="4.24005">
        <ele>39.447742684223</ele>
        <time>2025-05-30T07:32:42.897Z</time>
      </trkpt>
      <trkpt lat="43.75229" lon="4.24009">
        <ele>39.471339128879</ele>
        <time>2025-05-30T07:32:48.658Z</time>
      </trkpt>
      <trkpt lat="43.75224" lon="4.24012">
        <ele>39.490170362134</ele>
        <time>2025-05-30T07:32:53.736Z</time>
      </trkpt>
      <trkpt lat="43.75217" lon="4.24018">
        <ele>38.812716553076</ele>
        <time>2025-05-30T07:32:58.847Z</time>
      </trkpt>
      <trkpt lat="43.75211" lon="4.24017">
        <ele>38.811565458847</ele>
        <time>2025-05-30T07:33:03.863Z</time>
      </trkpt>
      <trkpt lat="43.75205" lon="4.24013">
        <ele>39.046914056215</ele>
        <time>2025-05-30T07:33:09.054Z</time>
      </trkpt>
      <trkpt lat="43.75198" lon="4.2401">
        <ele>39.076932546147</ele>
        <time>2025-05-30T07:33:14.680Z</time>
      </trkpt>
      <trkpt lat="43.75193" lon="4.24014">
        <ele>38.547945449753</ele>
        <time>2025-05-30T07:33:19.871Z</time>
      </trkpt>
      <trkpt lat="43.75188" lon="4.2402">
        <ele>37.854005047474</ele>
        <time>2025-05-30T07:33:25.832Z</time>
      </trkpt>
      <trkpt lat="43.75185" lon="4.24027">
        <ele>37.247668908407</ele>
        <time>2025-05-30T07:33:30.872Z</time>
      </trkpt>
      <trkpt lat="43.75185" lon="4.24031">
        <ele>37.06196677806</ele>
        <time>2025-05-30T07:33:36.528Z</time>
      </trkpt>
      <trkpt lat="43.75186" lon="4.24033">
        <ele>36.958203311361</ele>
        <time>2025-05-30T07:33:41.864Z</time>
      </trkpt>
      <trkpt lat="43.75184" lon="4.24035">
        <ele>36.784377862442</ele>
        <time>2025-05-30T07:33:47.212Z</time>
      </trkpt>
      <trkpt lat="43.75187" lon="4.24037">
        <ele>36.727466177844</ele>
        <time>2025-05-30T07:33:52.471Z</time>
      </trkpt>
      <trkpt lat="43.75189" lon="4.24042">
        <ele>36.485960688515</ele>
        <time>2025-05-30T07:33:57.766Z</time>
      </trkpt>
      <trkpt lat="43.75188" lon="4.24046">
        <ele>36.284182015315</ele>
        <time>2025-05-30T07:34:03.848Z</time>
      </trkpt>
      <trkpt lat="43.75186" lon="4.24049">
        <ele>36.155635344707</ele>
        <time>2025-05-30T07:34:08.864Z</time>
      </trkpt>
      <trkpt lat="43.75185" lon="4.2405">
        <ele>36.083211112329</ele>
        <time>2025-05-30T07:34:14.841Z</time>
      </trkpt>
      <trkpt lat="43.75185" lon="4.24052">
        <ele>36.003166243305</ele>
        <time>2025-05-30T07:34:22.745Z</time>
      </trkpt>
      <trkpt lat="43.75184" lon="4.24053">
        <ele>35.946425276097</ele>
        <time>2025-05-30T07:34:33.745Z</time>
      </trkpt>
      <trkpt lat="43.75184" lon="4.24054">
        <ele>35.886279023617</ele>
        <time>2025-05-30T07:34:45.745Z</time>
      </trkpt>
      <trkpt lat="43.75184" lon="4.24055">
        <ele>35.838183118848</ele>
        <time>2025-05-30T07:34:56.745Z</time>
      </trkpt>
      <trkpt lat="43.75183" lon="4.24056">
        <ele>35.830430026056</ele>
        <time>2025-05-30T07:35:23.746Z</time>
      </trkpt>
      <trkpt lat="43.75183" lon="4.24057">
        <ele>35.80085954902</ele>
        <time>2025-05-30T07:35:32.746Z</time>
      </trkpt>
      <trkpt lat="43.75182" lon="4.24059">
        <ele>35.760248526835</ele>
        <time>2025-05-30T07:35:38.253Z</time>
      </trkpt>
      <trkpt lat="43.75174" lon="4.24063">
        <ele>35.600330411945</ele>
        <time>2025-05-30T07:35:43.474Z</time>
      </trkpt>
      <trkpt lat="43.75169" lon="4.2407">
        <ele>35.393833923087</ele>
        <time>2025-05-30T07:35:48.879Z</time>
      </trkpt>
      <trkpt lat="43.75164" lon="4.24076">
        <ele>35.20647281273</ele>
        <time>2025-05-30T07:35:53.986Z</time>
      </trkpt>
      <trkpt lat="43.75158" lon="4.24085">
        <ele>34.928897483372</ele>
        <time>2025-05-30T07:35:59.765Z</time>
      </trkpt>
      <trkpt lat="43.75153" lon="4.24089">
        <ele>34.735157935663</ele>
        <time>2025-05-30T07:36:04.811Z</time>
      </trkpt>
      <trkpt lat="43.7515" lon="4.24099">
        <ele>34.596904084264</ele>
        <time>2025-05-30T07:36:10.173Z</time>
      </trkpt>
      <trkpt lat="43.75152" lon="4.24111">
        <ele>34.627250713276</ele>
        <time>2025-05-30T07:36:15.572Z</time>
      </trkpt>
      <trkpt lat="43.75156" lon="4.24122">
        <ele>34.703087988172</ele>
        <time>2025-05-30T07:36:20.788Z</time>
      </trkpt>
      <trkpt lat="43.75159" lon="4.24131">
        <ele>34.74025946422</ele>
        <time>2025-05-30T07:36:25.850Z</time>
      </trkpt>
      <trkpt lat="43.75164" lon="4.24138">
        <ele>34.804936847382</ele>
        <time>2025-05-30T07:36:30.866Z</time>
      </trkpt>
      <trkpt lat="43.7517" lon="4.24144">
        <ele>34.852816845266</ele>
        <time>2025-05-30T07:36:36.630Z</time>
      </trkpt>
      <trkpt lat="43.75177" lon="4.24149">
        <ele>34.90995692403</ele>
        <time>2025-05-30T07:36:41.965Z</time>
      </trkpt>
      <trkpt lat="43.75183" lon="4.24155">
        <ele>34.964057779936</ele>
        <time>2025-05-30T07:36:47.374Z</time>
      </trkpt>
      <trkpt lat="43.75189" lon="4.2416">
        <ele>35.107021151623</ele>
        <time>2025-05-30T07:36:52.487Z</time>
      </trkpt>
      <trkpt lat="43.75197" lon="4.24163">
        <ele>35.426716613798</ele>
        <time>2025-05-30T07:36:58.872Z</time>
      </trkpt>
      <trkpt lat="43.75205" lon="4.24166">
        <ele>35.756826940416</ele>
        <time>2025-05-30T07:37:04.750Z</time>
      </trkpt>
      <trkpt lat="43.75211" lon="4.2417">
        <ele>36.197604132125</ele>
        <time>2025-05-30T07:37:10.150Z</time>
      </trkpt>
      <trkpt lat="43.75219" lon="4.24173">
        <ele>36.658805331612</ele>
        <time>2025-05-30T07:37:15.538Z</time>
      </trkpt>
      <trkpt lat="43.75227" lon="4.24176">
        <ele>37.072925007721</ele>
        <time>2025-05-30T07:37:20.873Z</time>
      </trkpt>
      <trkpt lat="43.75234" lon="4.24175">
        <ele>37.155862262664</ele>
        <time>2025-05-30T07:37:26.203Z</time>
      </trkpt>
      <trkpt lat="43.7524" lon="4.24177">
        <ele>37.413420678341</ele>
        <time>2025-05-30T07:37:31.504Z</time>
      </trkpt>
      <trkpt lat="43.75247" lon="4.24179">
        <ele>37.685253253533</ele>
        <time>2025-05-30T07:37:36.882Z</time>
      </trkpt>
      <trkpt lat="43.75254" lon="4.24178">
        <ele>37.663881759975</ele>
        <time>2025-05-30T07:37:42.398Z</time>
      </trkpt>
      <trkpt lat="43.75262" lon="4.24178">
        <ele>37.712570343618</ele>
        <time>2025-05-30T07:37:47.875Z</time>
      </trkpt>
      <trkpt lat="43.7527" lon="4.24179">
        <ele>37.717109675044</ele>
        <time>2025-05-30T07:37:53.258Z</time>
      </trkpt>
      <trkpt lat="43.75275" lon="4.24179">
        <ele>37.751862706281</ele>
        <time>2025-05-30T07:37:58.655Z</time>
      </trkpt>
      <trkpt lat="43.75283" lon="4.24181">
        <ele>37.838057046664</ele>
        <time>2025-05-30T07:38:03.882Z</time>
      </trkpt>
      <trkpt lat="43.75291" lon="4.24183">
        <ele>37.898241076242</ele>
        <time>2025-05-30T07:38:09.397Z</time>
      </trkpt>
      <trkpt lat="43.75298" lon="4.24185">
        <ele>38.045479040345</ele>
        <time>2025-05-30T07:38:14.858Z</time>
      </trkpt>
      <trkpt lat="43.75306" lon="4.24187">
        <ele>38.132546931445</ele>
        <time>2025-05-30T07:38:20.357Z</time>
      </trkpt>
      <trkpt lat="43.75312" lon="4.24188">
        <ele>38.205705978665</ele>
        <time>2025-05-30T07:38:25.867Z</time>
      </trkpt>
      <trkpt lat="43.75319" lon="4.24186">
        <ele>38.216129700565</ele>
        <time>2025-05-30T07:38:31.275Z</time>
      </trkpt>
      <trkpt lat="43.75325" lon="4.24191">
        <ele>38.364548300538</ele>
        <time>2025-05-30T07:38:36.859Z</time>
      </trkpt>
      <trkpt lat="43.75321" lon="4.24203">
        <ele>38.855172831426</ele>
        <time>2025-05-30T07:38:42.565Z</time>
      </trkpt>
      <trkpt lat="43.75322" lon="4.24212">
        <ele>39.320067486333</ele>
        <time>2025-05-30T07:38:48.385Z</time>
      </trkpt>
      <trkpt lat="43.75322" lon="4.24221">
        <ele>39.777592982222</ele>
        <time>2025-05-30T07:38:53.828Z</time>
      </trkpt>
      <trkpt lat="43.7532" lon="4.24229">
        <ele>40.277562179983</ele>
        <time>2025-05-30T07:38:59.320Z</time>
      </trkpt>
      <trkpt lat="43.75317" lon="4.24237">
        <ele>41.081512236756</ele>
        <time>2025-05-30T07:39:04.821Z</time>
      </trkpt>
      <trkpt lat="43.75316" lon="4.24246">
        <ele>41.859423023541</ele>
        <time>2025-05-30T07:39:10.301Z</time>
      </trkpt>
      <trkpt lat="43.75311" lon="4.24251">
        <ele>42.601881100232</ele>
        <time>2025-05-30T07:39:15.700Z</time>
      </trkpt>
      <trkpt lat="43.75305" lon="4.24258">
        <ele>43.762502813462</ele>
        <time>2025-05-30T07:39:20.829Z</time>
      </trkpt>
      <trkpt lat="43.75307" lon="4.24266">
        <ele>44.499816167738</ele>
        <time>2025-05-30T07:39:26.319Z</time>
      </trkpt>
      <trkpt lat="43.75312" lon="4.24273">
        <ele>44.502938294556</ele>
        <time>2025-05-30T07:39:31.681Z</time>
      </trkpt>
      <trkpt lat="43.75315" lon="4.2428">
        <ele>44.987803510984</ele>
        <time>2025-05-30T07:39:37.177Z</time>
      </trkpt>
      <trkpt lat="43.75315" lon="4.24289">
        <ele>45.697422195195</ele>
        <time>2025-05-30T07:39:42.799Z</time>
      </trkpt>
      <trkpt lat="43.75316" lon="4.24297">
        <ele>46.224385543387</ele>
        <time>2025-05-30T07:39:48.118Z</time>
      </trkpt>
      <trkpt lat="43.75315" lon="4.24305">
        <ele>46.892436326026</ele>
        <time>2025-05-30T07:39:53.382Z</time>
      </trkpt>
      <trkpt lat="43.75316" lon="4.24314">
        <ele>47.3002319195</ele>
        <time>2025-05-30T07:39:58.720Z</time>
      </trkpt>
      <trkpt lat="43.75318" lon="4.2432">
        <ele>47.248590701239</ele>
        <time>2025-05-30T07:40:03.841Z</time>
      </trkpt>
      <trkpt lat="43.75321" lon="4.24322">
        <ele>47.000280661797</ele>
        <time>2025-05-30T07:40:09.258Z</time>
      </trkpt>
      <trkpt lat="43.75324" lon="4.2433">
        <ele>46.880141646316</ele>
        <time>2025-05-30T07:40:14.479Z</time>
      </trkpt>
      <trkpt lat="43.75328" lon="4.2434">
        <ele>46.623520063828</ele>
        <time>2025-05-30T07:40:19.848Z</time>
      </trkpt>
      <trkpt lat="43.7533" lon="4.24351">
        <ele>46.394349150089</ele>
        <time>2025-05-30T07:40:24.939Z</time>
      </trkpt>
      <trkpt lat="43.75331" lon="4.2436">
        <ele>46.081852753783</ele>
        <time>2025-05-30T07:40:30.095Z</time>
      </trkpt>
      <trkpt lat="43.75331" lon="4.24367">
        <ele>45.842284614115</ele>
        <time>2025-05-30T07:40:35.856Z</time>
      </trkpt>
      <trkpt lat="43.75327" lon="4.24368">
        <ele>45.994031411903</ele>
        <time>2025-05-30T07:40:41.833Z</time>
      </trkpt>
      <trkpt lat="43.75327" lon="4.24369">
        <ele>45.942109462636</ele>
        <time>2025-05-30T07:40:48.283Z</time>
      </trkpt>
      <trkpt lat="43.7533" lon="4.24372">
        <ele>45.717786108922</ele>
        <time>2025-05-30T07:40:53.735Z</time>
      </trkpt>
      <trkpt lat="43.75328" lon="4.24384">
        <ele>45.237486502062</ele>
        <time>2025-05-30T07:40:59.336Z</time>
      </trkpt>
      <trkpt lat="43.75325" lon="4.24385">
        <ele>45.252041674879</ele>
        <time>2025-05-30T07:41:04.459Z</time>
      </trkpt>
      <trkpt lat="43.75329" lon="4.24378">
        <ele>45.476863473128</ele>
        <time>2025-05-30T07:41:09.522Z</time>
      </trkpt>
      <trkpt lat="43.75324" lon="4.24373">
        <ele>45.875312787517</ele>
        <time>2025-05-30T07:41:15.097Z</time>
      </trkpt>
      <trkpt lat="43.75318" lon="4.24375">
        <ele>46.246028129671</ele>
        <time>2025-05-30T07:41:20.789Z</time>
      </trkpt>
      <trkpt lat="43.75316" lon="4.24378">
        <ele>46.293466140636</ele>
        <time>2025-05-30T07:41:25.804Z</time>
      </trkpt>
      <trkpt lat="43.75317" lon="4.24377">
        <ele>46.203126007025</ele>
        <time>2025-05-30T07:41:30.820Z</time>
      </trkpt>
      <trkpt lat="43.75317" lon="4.24378">
        <ele>46.137011060523</ele>
        <time>2025-05-30T07:41:37.279Z</time>
      </trkpt>
      <trkpt lat="43.7532" lon="4.24388">
        <ele>45.415543043507</ele>
        <time>2025-05-30T07:41:42.419Z</time>
      </trkpt>
      <trkpt lat="43.75325" lon="4.24397">
        <ele>44.655102721348</ele>
        <time>2025-05-30T07:41:47.789Z</time>
      </trkpt>
      <trkpt lat="43.75326" lon="4.24404">
        <ele>44.273254175912</ele>
        <time>2025-05-30T07:41:53.155Z</time>
      </trkpt>
      <trkpt lat="43.75329" lon="4.24412">
        <ele>43.794397775145</ele>
        <time>2025-05-30T07:41:58.358Z</time>
      </trkpt>
      <trkpt lat="43.75331" lon="4.2442">
        <ele>43.389992177419</ele>
        <time>2025-05-30T07:42:03.798Z</time>
      </trkpt>
      <trkpt lat="43.75335" lon="4.24426">
        <ele>43.105909912398</ele>
        <time>2025-05-30T07:42:08.815Z</time>
      </trkpt>
      <trkpt lat="43.75338" lon="4.24431">
        <ele>42.936047923786</ele>
        <time>2025-05-30T07:42:13.831Z</time>
      </trkpt>
      <trkpt lat="43.75341" lon="4.24439">
        <ele>42.864855188615</ele>
        <time>2025-05-30T07:42:19.803Z</time>
      </trkpt>
      <trkpt lat="43.75343" lon="4.24439">
        <ele>42.913858051367</ele>
        <time>2025-05-30T07:42:25.784Z</time>
      </trkpt>
      <trkpt lat="43.75344" lon="4.2444">
        <ele>42.938433744805</ele>
        <time>2025-05-30T07:42:33.789Z</time>
      </trkpt>
      <trkpt lat="43.75343" lon="4.24441">
        <ele>42.920771335315</ele>
        <time>2025-05-30T07:42:38.805Z</time>
      </trkpt>
      <trkpt lat="43.75343" lon="4.24442">
        <ele>42.891825358029</ele>
        <time>2025-05-30T07:42:45.123Z</time>
      </trkpt>
      <trkpt lat="43.75337" lon="4.24451">
        <ele>42.583216912664</ele>
        <time>2025-05-30T07:42:50.841Z</time>
      </trkpt>
      <trkpt lat="43.75331" lon="4.24454">
        <ele>42.410019030562</ele>
        <time>2025-05-30T07:42:56.578Z</time>
      </trkpt>
      <trkpt lat="43.7533" lon="4.2446">
        <ele>42.458491888587</ele>
        <time>2025-05-30T07:43:01.858Z</time>
      </trkpt>
      <trkpt lat="43.75332" lon="4.2447">
        <ele>42.661940115092</ele>
        <time>2025-05-30T07:43:07.695Z</time>
      </trkpt>
      <trkpt lat="43.75332" lon="4.24477">
        <ele>42.829143087549</ele>
        <time>2025-05-30T07:43:12.852Z</time>
      </trkpt>
      <trkpt lat="43.75331" lon="4.24483">
        <ele>42.940201552573</ele>
        <time>2025-05-30T07:43:18.218Z</time>
      </trkpt>
      <trkpt lat="43.75332" lon="4.24493">
        <ele>43.238476633785</ele>
        <time>2025-05-30T07:43:23.845Z</time>
      </trkpt>
      <trkpt lat="43.75332" lon="4.245">
        <ele>43.446148578204</ele>
        <time>2025-05-30T07:43:28.861Z</time>
      </trkpt>
      <trkpt lat="43.75334" lon="4.24507">
        <ele>43.741729120758</ele>
        <time>2025-05-30T07:43:34.439Z</time>
      </trkpt>
      <trkpt lat="43.75334" lon="4.24515">
        <ele>43.984840551223</ele>
        <time>2025-05-30T07:43:39.755Z</time>
      </trkpt>
      <trkpt lat="43.75336" lon="4.24522">
        <ele>44.27154706082</ele>
        <time>2025-05-30T07:43:44.870Z</time>
      </trkpt>
      <trkpt lat="43.75335" lon="4.2453">
        <ele>44.569481017676</ele>
        <time>2025-05-30T07:43:50.121Z</time>
      </trkpt>
      <trkpt lat="43.75333" lon="4.2454">
        <ele>44.839886919359</ele>
        <time>2025-05-30T07:43:55.756Z</time>
      </trkpt>
      <trkpt lat="43.75332" lon="4.24548">
        <ele>45.031221600536</ele>
        <time>2025-05-30T07:44:01.362Z</time>
      </trkpt>
      <trkpt lat="43.75331" lon="4.24552">
        <ele>45.152593475872</ele>
        <time>2025-05-30T07:44:06.458Z</time>
      </trkpt>
      <trkpt lat="43.75327" lon="4.24556">
        <ele>45.157689372558</ele>
        <time>2025-05-30T07:44:11.679Z</time>
      </trkpt>
      <trkpt lat="43.75325" lon="4.24565">
        <ele>45.3843657068</ele>
        <time>2025-05-30T07:44:17.236Z</time>
      </trkpt>
      <trkpt lat="43.75323" lon="4.24573">
        <ele>45.638044123179</ele>
        <time>2025-05-30T07:44:22.441Z</time>
      </trkpt>
      <trkpt lat="43.75323" lon="4.24581">
        <ele>46.009875381479</ele>
        <time>2025-05-30T07:44:27.774Z</time>
      </trkpt>
      <trkpt lat="43.75324" lon="4.24588">
        <ele>46.33666053855</ele>
        <time>2025-05-30T07:44:32.791Z</time>
      </trkpt>
      <trkpt lat="43.75326" lon="4.24595">
        <ele>46.222607996361</ele>
        <time>2025-05-30T07:44:37.807Z</time>
      </trkpt>
      <trkpt lat="43.75328" lon="4.24605">
        <ele>46.290924678871</ele>
        <time>2025-05-30T07:44:43.121Z</time>
      </trkpt>
      <trkpt lat="43.75332" lon="4.24612">
        <ele>46.438470370648</ele>
        <time>2025-05-30T07:44:48.420Z</time>
      </trkpt>
      <trkpt lat="43.75331" lon="4.24623">
        <ele>45.156982599482</ele>
        <time>2025-05-30T07:44:53.816Z</time>
      </trkpt>
      <trkpt lat="43.75331" lon="4.2463">
        <ele>45.301292188574</ele>
        <time>2025-05-30T07:44:58.832Z</time>
      </trkpt>
      <trkpt lat="43.75334" lon="4.24633">
        <ele>46.466669262606</ele>
        <time>2025-05-30T07:45:04.809Z</time>
      </trkpt>
      <trkpt lat="43.75333" lon="4.24632">
        <ele>46.262293304117</ele>
        <time>2025-05-30T07:45:09.825Z</time>
      </trkpt>
      <trkpt lat="43.75334" lon="4.24632">
        <ele>46.605845928873</ele>
        <time>2025-05-30T07:45:20.392Z</time>
      </trkpt>
      <trkpt lat="43.75337" lon="4.24643">
        <ele>47.497458989373</ele>
        <time>2025-05-30T07:45:25.486Z</time>
      </trkpt>
      <trkpt lat="43.75335" lon="4.24653">
        <ele>46.788491978428</ele>
        <time>2025-05-30T07:45:31.102Z</time>
      </trkpt>
      <trkpt lat="43.75336" lon="4.24661">
        <ele>46.99783677148</ele>
        <time>2025-05-30T07:45:36.340Z</time>
      </trkpt>
      <trkpt lat="43.75338" lon="4.2467">
        <ele>47.111656557644</ele>
        <time>2025-05-30T07:45:41.844Z</time>
      </trkpt>
      <trkpt lat="43.75341" lon="4.24678">
        <ele>46.870166755147</ele>
        <time>2025-05-30T07:45:47.821Z</time>
      </trkpt>
      <trkpt lat="43.75342" lon="4.24682">
        <ele>46.72304240755</ele>
        <time>2025-05-30T07:45:52.840Z</time>
      </trkpt>
      <trkpt lat="43.75341" lon="4.24689">
        <ele>46.617439778531</ele>
        <time>2025-05-30T07:45:58.639Z</time>
      </trkpt>
      <trkpt lat="43.75338" lon="4.24698">
        <ele>46.163805014201</ele>
        <time>2025-05-30T07:46:04.696Z</time>
      </trkpt>
      <trkpt lat="43.7534" lon="4.24704">
        <ele>45.532863539947</ele>
        <time>2025-05-30T07:46:09.856Z</time>
      </trkpt>
      <trkpt lat="43.75345" lon="4.24704">
        <ele>45.158853163323</ele>
        <time>2025-05-30T07:46:14.863Z</time>
      </trkpt>
      <trkpt lat="43.75351" lon="4.24704">
        <ele>44.509874368871</ele>
        <time>2025-05-30T07:46:20.342Z</time>
      </trkpt>
      <trkpt lat="43.75356" lon="4.24708">
        <ele>43.635642193339</ele>
        <time>2025-05-30T07:46:25.605Z</time>
      </trkpt>
      <trkpt lat="43.75363" lon="4.2471">
        <ele>42.973459565928</ele>
        <time>2025-05-30T07:46:30.644Z</time>
      </trkpt>
      <trkpt lat="43.75367" lon="4.2472">
        <ele>42.36717927959</ele>
        <time>2025-05-30T07:46:36.120Z</time>
      </trkpt>
      <trkpt lat="43.7537" lon="4.24729">
        <ele>41.874753103959</ele>
        <time>2025-05-30T07:46:41.598Z</time>
      </trkpt>
      <trkpt lat="43.75373" lon="4.24736">
        <ele>41.635956289579</ele>
        <time>2025-05-30T07:46:46.740Z</time>
      </trkpt>
      <trkpt lat="43.75369" lon="4.24741">
        <ele>41.337883108318</ele>
        <time>2025-05-30T07:46:52.718Z</time>
      </trkpt>
      <trkpt lat="43.75363" lon="4.2474">
        <ele>41.245168845277</ele>
        <time>2025-05-30T07:46:57.838Z</time>
      </trkpt>
      <trkpt lat="43.75356" lon="4.24736">
        <ele>41.480458228255</ele>
        <time>2025-05-30T07:47:03.701Z</time>
      </trkpt>
      <trkpt lat="43.75352" lon="4.24744">
        <ele>40.920986811588</ele>
        <time>2025-05-30T07:47:09.163Z</time>
      </trkpt>
      <trkpt lat="43.75352" lon="4.24753">
        <ele>40.590869460171</ele>
        <time>2025-05-30T07:47:14.580Z</time>
      </trkpt>
      <trkpt lat="43.75352" lon="4.24758">
        <ele>40.369024826085</ele>
        <time>2025-05-30T07:47:19.825Z</time>
      </trkpt>
      <trkpt lat="43.7535" lon="4.24765">
        <ele>40.239094303722</ele>
        <time>2025-05-30T07:47:25.279Z</time>
      </trkpt>
      <trkpt lat="43.7535" lon="4.2477">
        <ele>40.230593373696</ele>
        <time>2025-05-30T07:47:30.661Z</time>
      </trkpt>
      <trkpt lat="43.75349" lon="4.24778">
        <ele>40.200926410427</ele>
        <time>2025-05-30T07:47:35.918Z</time>
      </trkpt>
      <trkpt lat="43.75349" lon="4.24786">
        <ele>40.506813188561</ele>
        <time>2025-05-30T07:47:41.342Z</time>
      </trkpt>
      <trkpt lat="43.75355" lon="4.24792">
        <ele>41.081412177088</ele>
        <time>2025-05-30T07:47:46.483Z</time>
      </trkpt>
      <trkpt lat="43.75357" lon="4.24803">
        <ele>42.159407617107</ele>
        <time>2025-05-30T07:47:51.980Z</time>
      </trkpt>
      <trkpt lat="43.75355" lon="4.24807">
        <ele>42.495197416411</ele>
        <time>2025-05-30T07:47:57.777Z</time>
      </trkpt>
      <trkpt lat="43.75357" lon="4.24815">
        <ele>43.465982770548</ele>
        <time>2025-05-30T07:48:02.837Z</time>
      </trkpt>
      <trkpt lat="43.7536" lon="4.24825">
        <ele>44.63024427972</ele>
        <time>2025-05-30T07:48:08.336Z</time>
      </trkpt>
      <trkpt lat="43.75362" lon="4.24833">
        <ele>45.648413132206</ele>
        <time>2025-05-30T07:48:13.700Z</time>
      </trkpt>
      <trkpt lat="43.75364" lon="4.2484">
        <ele>46.570565261532</ele>
        <time>2025-05-30T07:48:18.824Z</time>
      </trkpt>
      <trkpt lat="43.75365" lon="4.24848">
        <ele>47.327569550898</ele>
        <time>2025-05-30T07:48:24.317Z</time>
      </trkpt>
      <trkpt lat="43.75368" lon="4.24853">
        <ele>47.878990740884</ele>
        <time>2025-05-30T07:48:29.362Z</time>
      </trkpt>
      <trkpt lat="43.75368" lon="4.24858">
        <ele>48.379007468631</ele>
        <time>2025-05-30T07:48:34.539Z</time>
      </trkpt>
      <trkpt lat="43.75365" lon="4.24864">
        <ele>48.610526340635</ele>
        <time>2025-05-30T07:48:39.765Z</time>
      </trkpt>
      <trkpt lat="43.75369" lon="4.24867">
        <ele>49.061539948947</ele>
        <time>2025-05-30T07:48:44.781Z</time>
      </trkpt>
      <trkpt lat="43.75373" lon="4.2487">
        <ele>49.527403875103</ele>
        <time>2025-05-30T07:48:50.027Z</time>
      </trkpt>
      <trkpt lat="43.75378" lon="4.24874">
        <ele>50.009303696812</ele>
        <time>2025-05-30T07:48:55.260Z</time>
      </trkpt>
      <trkpt lat="43.75382" lon="4.24876">
        <ele>50.357703216204</ele>
        <time>2025-05-30T07:49:00.790Z</time>
      </trkpt>
      <trkpt lat="43.75386" lon="4.24879">
        <ele>50.70934364927</ele>
        <time>2025-05-30T07:49:05.807Z</time>
      </trkpt>
      <trkpt lat="43.7539" lon="4.2488">
        <ele>50.968806323977</ele>
        <time>2025-05-30T07:49:10.823Z</time>
      </trkpt>
      <trkpt lat="43.75394" lon="4.24878">
        <ele>51.071651474267</ele>
        <time>2025-05-30T07:49:15.839Z</time>
      </trkpt>
      <trkpt lat="43.75395" lon="4.24881">
        <ele>51.254855824977</ele>
        <time>2025-05-30T07:49:21.283Z</time>
      </trkpt>
      <trkpt lat="43.75398" lon="4.24887">
        <ele>51.605233631059</ele>
        <time>2025-05-30T07:49:26.299Z</time>
      </trkpt>
      <trkpt lat="43.75403" lon="4.24892">
        <ele>51.957878610482</ele>
        <time>2025-05-30T07:49:31.477Z</time>
      </trkpt>
      <trkpt lat="43.75407" lon="4.24898">
        <ele>52.263695580582</ele>
        <time>2025-05-30T07:49:36.619Z</time>
      </trkpt>
      <trkpt lat="43.75413" lon="4.24904">
        <ele>52.478702866979</ele>
        <time>2025-05-30T07:49:42.275Z</time>
      </trkpt>
      <trkpt lat="43.7542" lon="4.24907">
        <ele>52.716053161366</ele>
        <time>2025-05-30T07:49:47.762Z</time>
      </trkpt>
      <trkpt lat="43.75426" lon="4.24909">
        <ele>52.906291053645</ele>
        <time>2025-05-30T07:49:53.242Z</time>
      </trkpt>
      <trkpt lat="43.75432" lon="4.24909">
        <ele>53.03316813847</ele>
        <time>2025-05-30T07:49:58.320Z</time>
      </trkpt>
      <trkpt lat="43.75436" lon="4.24905">
        <ele>53.154993209357</ele>
        <time>2025-05-30T07:50:03.640Z</time>
      </trkpt>
      <trkpt lat="43.75441" lon="4.249">
        <ele>53.192912340762</ele>
        <time>2025-05-30T07:50:09.182Z</time>
      </trkpt>
      <trkpt lat="43.75447" lon="4.24897">
        <ele>53.245257226084</ele>
        <time>2025-05-30T07:50:14.865Z</time>
      </trkpt>
      <trkpt lat="43.75453" lon="4.249">
        <ele>53.201045097788</ele>
        <time>2025-05-30T07:50:19.877Z</time>
      </trkpt>
      <trkpt lat="43.75458" lon="4.24905">
        <ele>53.106251393413</ele>
        <time>2025-05-30T07:50:25.261Z</time>
      </trkpt>
      <trkpt lat="43.75466" lon="4.24904">
        <ele>53.111775504013</ele>
        <time>2025-05-30T07:50:30.455Z</time>
      </trkpt>
      <trkpt lat="43.75471" lon="4.24897">
        <ele>53.223934713681</ele>
        <time>2025-05-30T07:50:35.886Z</time>
      </trkpt>
      <trkpt lat="43.75477" lon="4.24893">
        <ele>53.245852668288</ele>
        <time>2025-05-30T07:50:41.330Z</time>
      </trkpt>
      <trkpt lat="43.75485" lon="4.24892">
        <ele>53.335632918384</ele>
        <time>2025-05-30T07:50:46.419Z</time>
      </trkpt>
      <trkpt lat="43.75489" lon="4.24889">
        <ele>53.235990713223</ele>
        <time>2025-05-30T07:50:51.470Z</time>
      </trkpt>
      <trkpt lat="43.75491" lon="4.24882">
        <ele>53.145481707708</ele>
        <time>2025-05-30T07:50:56.912Z</time>
      </trkpt>
      <trkpt lat="43.75489" lon="4.24876">
        <ele>53.04358512807</ele>
        <time>2025-05-30T07:51:01.975Z</time>
      </trkpt>
      <trkpt lat="43.75492" lon="4.24867">
        <ele>52.775332882425</ele>
        <time>2025-05-30T07:51:07.543Z</time>
      </trkpt>
      <trkpt lat="43.75498" lon="4.24862">
        <ele>52.632078469302</ele>
        <time>2025-05-30T07:51:13.583Z</time>
      </trkpt>
      <trkpt lat="43.75504" lon="4.2486">
        <ele>52.485981427661</ele>
        <time>2025-05-30T07:51:18.898Z</time>
      </trkpt>
      <trkpt lat="43.75512" lon="4.24859">
        <ele>52.479085761066</ele>
        <time>2025-05-30T07:51:23.914Z</time>
      </trkpt>
      <trkpt lat="43.75515" lon="4.24847">
        <ele>51.934279054275</ele>
        <time>2025-05-30T07:51:29.796Z</time>
      </trkpt>
      <trkpt lat="43.75513" lon="4.24838">
        <ele>51.330764063075</ele>
        <time>2025-05-30T07:51:35.240Z</time>
      </trkpt>
      <trkpt lat="43.75511" lon="4.24829">
        <ele>50.640805428288</ele>
        <time>2025-05-30T07:51:40.539Z</time>
      </trkpt>
      <trkpt lat="43.75511" lon="4.24819">
        <ele>50.104710721093</ele>
        <time>2025-05-30T07:51:45.760Z</time>
      </trkpt>
      <trkpt lat="43.7551" lon="4.24809">
        <ele>49.537795316374</ele>
        <time>2025-05-30T07:51:51.096Z</time>
      </trkpt>
      <trkpt lat="43.75514" lon="4.248">
        <ele>49.382491843281</ele>
        <time>2025-05-30T07:51:56.317Z</time>
      </trkpt>
      <trkpt lat="43.75515" lon="4.2479">
        <ele>49.057758590963</ele>
        <time>2025-05-30T07:52:01.556Z</time>
      </trkpt>
      <trkpt lat="43.75515" lon="4.24778">
        <ele>48.712625861272</ele>
        <time>2025-05-30T07:52:06.822Z</time>
      </trkpt>
      <trkpt lat="43.75516" lon="4.24769">
        <ele>48.484163981194</ele>
        <time>2025-05-30T07:52:11.835Z</time>
      </trkpt>
      <trkpt lat="43.75515" lon="4.24763">
        <ele>48.288220166992</ele>
        <time>2025-05-30T07:52:17.237Z</time>
      </trkpt>
      <trkpt lat="43.75515" lon="4.24756">
        <ele>48.124139730588</ele>
        <time>2025-05-30T07:52:22.401Z</time>
      </trkpt>
      <trkpt lat="43.75512" lon="4.24742">
        <ele>47.717721024805</ele>
        <time>2025-05-30T07:52:27.939Z</time>
      </trkpt>
      <trkpt lat="43.75511" lon="4.2473">
        <ele>47.587619144839</ele>
        <time>2025-05-30T07:52:33.619Z</time>
      </trkpt>
      <trkpt lat="43.75511" lon="4.24722">
        <ele>47.542928034167</ele>
        <time>2025-05-30T07:52:38.637Z</time>
      </trkpt>
      <trkpt lat="43.75511" lon="4.24714">
        <ele>47.594680685913</ele>
        <time>2025-05-30T07:52:44.336Z</time>
      </trkpt>
      <trkpt lat="43.75512" lon="4.24706">
        <ele>47.716107686798</ele>
        <time>2025-05-30T07:52:49.398Z</time>
      </trkpt>
      <trkpt lat="43.75513" lon="4.24697">
        <ele>47.917259571466</ele>
        <time>2025-05-30T07:52:54.795Z</time>
      </trkpt>
      <trkpt lat="43.75517" lon="4.24688">
        <ele>48.401132316353</ele>
        <time>2025-05-30T07:52:59.801Z</time>
      </trkpt>
      <trkpt lat="43.75521" lon="4.24677">
        <ele>48.91125758375</ele>
        <time>2025-05-30T07:53:05.342Z</time>
      </trkpt>
      <trkpt lat="43.75528" lon="4.2467">
        <ele>49.651511500064</ele>
        <time>2025-05-30T07:53:10.422Z</time>
      </trkpt>
      <trkpt lat="43.75534" lon="4.24667">
        <ele>50.318134044768</ele>
        <time>2025-05-30T07:53:15.695Z</time>
      </trkpt>
      <trkpt lat="43.7554" lon="4.24664">
        <ele>50.895943211094</ele>
        <time>2025-05-30T07:53:20.781Z</time>
      </trkpt>
      <trkpt lat="43.75543" lon="4.24661">
        <ele>51.307660143213</ele>
        <time>2025-05-30T07:53:25.994Z</time>
      </trkpt>
      <trkpt lat="43.75548" lon="4.24656">
        <ele>51.906275836533</ele>
        <time>2025-05-30T07:53:31.162Z</time>
      </trkpt>
      <trkpt lat="43.75555" lon="4.24658">
        <ele>52.255277426454</ele>
        <time>2025-05-30T07:53:36.641Z</time>
      </trkpt>
      <trkpt lat="43.75562" lon="4.24663">
        <ele>52.448191217397</ele>
        <time>2025-05-30T07:53:41.737Z</time>
      </trkpt>
      <trkpt lat="43.75568" lon="4.24665">
        <ele>52.631575496419</ele>
        <time>2025-05-30T07:53:46.928Z</time>
      </trkpt>
      <trkpt lat="43.75573" lon="4.24665">
        <ele>52.783162807322</ele>
        <time>2025-05-30T07:53:52.372Z</time>
      </trkpt>
      <trkpt lat="43.75576" lon="4.24653">
        <ele>53.168325498257</ele>
        <time>2025-05-30T07:53:57.720Z</time>
      </trkpt>
      <trkpt lat="43.75577" lon="4.24644">
        <ele>53.519710825789</ele>
        <time>2025-05-30T07:54:02.938Z</time>
      </trkpt>
      <trkpt lat="43.75578" lon="4.24635">
        <ele>53.862513183043</ele>
        <time>2025-05-30T07:54:08.118Z</time>
      </trkpt>
      <trkpt lat="43.75576" lon="4.24627">
        <ele>54.197388741752</ele>
        <time>2025-05-30T07:54:13.595Z</time>
      </trkpt>
      <trkpt lat="43.75576" lon="4.24618">
        <ele>54.613798181721</ele>
        <time>2025-05-30T07:54:18.683Z</time>
      </trkpt>
      <trkpt lat="43.75577" lon="4.24607">
        <ele>55.197894556675</ele>
        <time>2025-05-30T07:54:24.242Z</time>
      </trkpt>
      <trkpt lat="43.7558" lon="4.24597">
        <ele>55.724457076302</ele>
        <time>2025-05-30T07:54:29.702Z</time>
      </trkpt>
      <trkpt lat="43.75581" lon="4.24589">
        <ele>56.192293918963</ele>
        <time>2025-05-30T07:54:35.536Z</time>
      </trkpt>
      <trkpt lat="43.75582" lon="4.24579">
        <ele>56.766490645544</ele>
        <time>2025-05-30T07:54:40.825Z</time>
      </trkpt>
      <trkpt lat="43.75585" lon="4.24569">
        <ele>57.324785723878</ele>
        <time>2025-05-30T07:54:46.600Z</time>
      </trkpt>
      <trkpt lat="43.75585" lon="4.24561">
        <ele>57.800698503232</ele>
        <time>2025-05-30T07:54:52.240Z</time>
      </trkpt>
      <trkpt lat="43.75589" lon="4.24559">
        <ele>57.876417644322</ele>
        <time>2025-05-30T07:54:57.398Z</time>
      </trkpt>
      <trkpt lat="43.75589" lon="4.24553">
        <ele>58.195230195503</ele>
        <time>2025-05-30T07:55:02.704Z</time>
      </trkpt>
      <trkpt lat="43.75594" lon="4.24545">
        <ele>58.583300389146</ele>
        <time>2025-05-30T07:55:07.827Z</time>
      </trkpt>
      <trkpt lat="43.75591" lon="4.24541">
        <ele>58.840189944163</ele>
        <time>2025-05-30T07:55:13.879Z</time>
      </trkpt>
      <trkpt lat="43.75586" lon="4.24538">
        <ele>59.104889889413</ele>
        <time>2025-05-30T07:55:19.437Z</time>
      </trkpt>
      <trkpt lat="43.75589" lon="4.24531">
        <ele>59.393130484624</ele>
        <time>2025-05-30T07:55:24.796Z</time>
      </trkpt>
      <trkpt lat="43.75592" lon="4.24521">
        <ele>59.839136323086</ele>
        <time>2025-05-30T07:55:30.518Z</time>
      </trkpt>
      <trkpt lat="43.75594" lon="4.24508">
        <ele>60.433494605281</ele>
        <time>2025-05-30T07:55:35.789Z</time>
      </trkpt>
      <trkpt lat="43.75597" lon="4.24496">
        <ele>60.95062908459</ele>
        <time>2025-05-30T07:55:41.199Z</time>
      </trkpt>
      <trkpt lat="43.75598" lon="4.24487">
        <ele>61.263220921981</ele>
        <time>2025-05-30T07:55:46.357Z</time>
      </trkpt>
      <trkpt lat="43.75598" lon="4.24483">
        <ele>61.39336045582</ele>
        <time>2025-05-30T07:55:51.816Z</time>
      </trkpt>
      <trkpt lat="43.75599" lon="4.24472">
        <ele>61.600654930436</ele>
        <time>2025-05-30T07:55:57.502Z</time>
      </trkpt>
      <trkpt lat="43.75599" lon="4.24461">
        <ele>61.640135343811</ele>
        <time>2025-05-30T07:56:03.140Z</time>
      </trkpt>
      <trkpt lat="43.75601" lon="4.24452">
        <ele>61.789076489771</ele>
        <time>2025-05-30T07:56:08.182Z</time>
      </trkpt>
      <trkpt lat="43.75605" lon="4.24445">
        <ele>61.969584592508</ele>
        <time>2025-05-30T07:56:13.907Z</time>
      </trkpt>
      <trkpt lat="43.75606" lon="4.24447">
        <ele>62.095754260328</ele>
        <time>2025-05-30T07:56:19.777Z</time>
      </trkpt>
      <trkpt lat="43.75608" lon="4.24446">
        <ele>62.195515354122</ele>
        <time>2025-05-30T07:56:24.900Z</time>
      </trkpt>
      <trkpt lat="43.75608" lon="4.24447">
        <ele>62.261608876499</ele>
        <time>2025-05-30T07:56:30.557Z</time>
      </trkpt>
      <trkpt lat="43.75609" lon="4.24448">
        <ele>62.309121692254</ele>
        <time>2025-05-30T07:56:37.832Z</time>
      </trkpt>
      <trkpt lat="43.7561" lon="4.24447">
        <ele>62.399192147891</ele>
        <time>2025-05-30T07:56:46.769Z</time>
      </trkpt>
      <trkpt lat="43.75611" lon="4.24447">
        <ele>62.48933105549</ele>
        <time>2025-05-30T07:56:51.770Z</time>
      </trkpt>
      <trkpt lat="43.7561" lon="4.24447">
        <ele>62.414671837228</ele>
        <time>2025-05-30T07:57:09.770Z</time>
      </trkpt>
      <trkpt lat="43.75609" lon="4.24446">
        <ele>62.335086847227</ele>
        <time>2025-05-30T07:57:20.771Z</time>
      </trkpt>
      <trkpt lat="43.75608" lon="4.24446">
        <ele>62.208590547363</ele>
        <time>2025-05-30T07:57:26.770Z</time>
      </trkpt>
      <trkpt lat="43.75608" lon="4.24445">
        <ele>62.236146751405</ele>
        <time>2025-05-30T07:57:42.770Z</time>
      </trkpt>
      <trkpt lat="43.75609" lon="4.24443">
        <ele>62.28586444777</ele>
        <time>2025-05-30T07:57:49.771Z</time>
      </trkpt>
      <trkpt lat="43.75613" lon="4.24433">
        <ele>62.552909689532</ele>
        <time>2025-05-30T07:57:55.875Z</time>
      </trkpt>
      <trkpt lat="43.75616" lon="4.24427">
        <ele>62.69867210858</ele>
        <time>2025-05-30T07:58:01.861Z</time>
      </trkpt>
      <trkpt lat="43.75616" lon="4.24425">
        <ele>62.65552589272</ele>
        <time>2025-05-30T07:58:06.868Z</time>
      </trkpt>
      <trkpt lat="43.75618" lon="4.24425">
        <ele>62.785149553827</ele>
        <time>2025-05-30T07:58:12.844Z</time>
      </trkpt>
      <trkpt lat="43.75619" lon="4.24425">
        <ele>62.875323209958</ele>
        <time>2025-05-30T07:58:17.887Z</time>
      </trkpt>
      <trkpt lat="43.75621" lon="4.24423">
        <ele>63.022178110332</ele>
        <time>2025-05-30T07:58:23.771Z</time>
      </trkpt>
      <trkpt lat="43.75622" lon="4.24423">
        <ele>63.102377675773</ele>
        <time>2025-05-30T07:58:34.772Z</time>
      </trkpt>
      <trkpt lat="43.75626" lon="4.24418">
        <ele>63.363834501139</ele>
        <time>2025-05-30T07:58:40.771Z</time>
      </trkpt>
      <trkpt lat="43.75628" lon="4.24413">
        <ele>63.364671142334</ele>
        <time>2025-05-30T07:58:45.851Z</time>
      </trkpt>
      <trkpt lat="43.75629" lon="4.24405">
        <ele>62.955877994568</ele>
        <time>2025-05-30T07:58:51.276Z</time>
      </trkpt>
      <trkpt lat="43.7563" lon="4.24395">
        <ele>62.498129365199</ele>
        <time>2025-05-30T07:58:56.870Z</time>
      </trkpt>
      <trkpt lat="43.7563" lon="4.24396">
        <ele>62.587918719528</ele>
        <time>2025-05-30T07:59:07.863Z</time>
      </trkpt>
      <trkpt lat="43.75631" lon="4.24398">
        <ele>62.765271266979</ele>
        <time>2025-05-30T07:59:13.772Z</time>
      </trkpt>
      <trkpt lat="43.7563" lon="4.24399">
        <ele>62.7325377515</ele>
        <time>2025-05-30T07:59:30.772Z</time>
      </trkpt>
      <trkpt lat="43.7563" lon="4.244">
        <ele>62.760341919195</ele>
        <time>2025-05-30T07:59:37.772Z</time>
      </trkpt>
      <trkpt lat="43.75628" lon="4.24399">
        <ele>62.598614221029</ele>
        <time>2025-05-30T08:00:06.773Z</time>
      </trkpt>
      <trkpt lat="43.75625" lon="4.24395">
        <ele>62.059691039022</ele>
        <time>2025-05-30T08:00:12.155Z</time>
      </trkpt>
      <trkpt lat="43.75622" lon="4.24387">
        <ele>61.400635411922</ele>
        <time>2025-05-30T08:00:17.652Z</time>
      </trkpt>
      <trkpt lat="43.75623" lon="4.24379">
        <ele>60.972809235606</ele>
        <time>2025-05-30T08:00:22.830Z</time>
      </trkpt>
      <trkpt lat="43.75622" lon="4.24372">
        <ele>60.506047725051</ele>
        <time>2025-05-30T08:00:28.316Z</time>
      </trkpt>
      <trkpt lat="43.75619" lon="4.24365">
        <ele>59.859059906891</ele>
        <time>2025-05-30T08:00:33.625Z</time>
      </trkpt>
      <trkpt lat="43.75621" lon="4.24357">
        <ele>59.314281273954</ele>
        <time>2025-05-30T08:00:38.679Z</time>
      </trkpt>
      <trkpt lat="43.7562" lon="4.24349">
        <ele>58.697406156234</ele>
        <time>2025-05-30T08:00:43.998Z</time>
      </trkpt>
      <trkpt lat="43.75619" lon="4.24343">
        <ele>58.184589465861</ele>
        <time>2025-05-30T08:00:49.849Z</time>
      </trkpt>
      <trkpt lat="43.75615" lon="4.2434">
        <ele>57.861949284408</ele>
        <time>2025-05-30T08:00:55.185Z</time>
      </trkpt>
      <trkpt lat="43.75614" lon="4.24334">
        <ele>57.363602017032</ele>
        <time>2025-05-30T08:01:00.202Z</time>
      </trkpt>
      <trkpt lat="43.75613" lon="4.24329">
        <ele>56.900572314544</ele>
        <time>2025-05-30T08:01:05.621Z</time>
      </trkpt>
      <trkpt lat="43.75609" lon="4.24327">
        <ele>56.660499203449</ele>
        <time>2025-05-30T08:01:10.875Z</time>
      </trkpt>
      <trkpt lat="43.75608" lon="4.24326">
        <ele>56.560782733572</ele>
        <time>2025-05-30T08:01:15.891Z</time>
      </trkpt>
      <trkpt lat="43.75609" lon="4.24325">
        <ele>56.516690178247</ele>
        <time>2025-05-30T08:01:21.869Z</time>
      </trkpt>
      <trkpt lat="43.75609" lon="4.24323">
        <ele>56.404949600225</ele>
        <time>2025-05-30T08:01:27.845Z</time>
      </trkpt>
      <trkpt lat="43.75609" lon="4.24322">
        <ele>56.301741503421</ele>
        <time>2025-05-30T08:01:33.774Z</time>
      </trkpt>
      <trkpt lat="43.7561" lon="4.24319">
        <ele>56.116385130925</ele>
        <time>2025-05-30T08:01:38.789Z</time>
      </trkpt>
      <trkpt lat="43.75616" lon="4.24309">
        <ele>55.619936643526</ele>
        <time>2025-05-30T08:01:44.267Z</time>
      </trkpt>
      <trkpt lat="43.75624" lon="4.24304">
        <ele>55.724268809993</ele>
        <time>2025-05-30T08:01:49.764Z</time>
      </trkpt>
      <trkpt lat="43.7563" lon="4.24299">
        <ele>55.822134713378</ele>
        <time>2025-05-30T08:01:54.850Z</time>
      </trkpt>
      <trkpt lat="43.75637" lon="4.24295">
        <ele>55.898297447572</ele>
        <time>2025-05-30T08:01:59.866Z</time>
      </trkpt>
      <trkpt lat="43.75644" lon="4.24289">
        <ele>55.912114267108</ele>
        <time>2025-05-30T08:02:05.842Z</time>
      </trkpt>
      <trkpt lat="43.75649" lon="4.24284">
        <ele>55.882687719615</ele>
        <time>2025-05-30T08:02:10.859Z</time>
      </trkpt>
      <trkpt lat="43.75656" lon="4.24276">
        <ele>55.718415155076</ele>
        <time>2025-05-30T08:02:16.144Z</time>
      </trkpt>
      <trkpt lat="43.75664" lon="4.24272">
        <ele>55.788003979673</ele>
        <time>2025-05-30T08:02:21.767Z</time>
      </trkpt>
      <trkpt lat="43.75669" lon="4.24266">
        <ele>55.51873449127</ele>
        <time>2025-05-30T08:02:26.828Z</time>
      </trkpt>
      <trkpt lat="43.75676" lon="4.2426">
        <ele>55.215017211379</ele>
        <time>2025-05-30T08:02:32.846Z</time>
      </trkpt>
      <trkpt lat="43.75683" lon="4.24257">
        <ele>55.114406885902</ele>
        <time>2025-05-30T08:02:37.862Z</time>
      </trkpt>
      <trkpt lat="43.7569" lon="4.2426">
        <ele>55.481513918231</ele>
        <time>2025-05-30T08:02:42.908Z</time>
      </trkpt>
      <trkpt lat="43.75699" lon="4.2426">
        <ele>55.707546915513</ele>
        <time>2025-05-30T08:02:48.856Z</time>
      </trkpt>
      <trkpt lat="43.75705" lon="4.24256">
        <ele>55.562066969232</ele>
        <time>2025-05-30T08:02:54.585Z</time>
      </trkpt>
      <trkpt lat="43.75712" lon="4.24258">
        <ele>55.820741007747</ele>
        <time>2025-05-30T08:02:59.849Z</time>
      </trkpt>
      <trkpt lat="43.75719" lon="4.2426">
        <ele>56.127582110874</ele>
        <time>2025-05-30T08:03:04.866Z</time>
      </trkpt>
      <trkpt lat="43.75727" lon="4.24262">
        <ele>56.467497692521</ele>
        <time>2025-05-30T08:03:10.088Z</time>
      </trkpt>
      <trkpt lat="43.75736" lon="4.24255">
        <ele>55.994868051705</ele>
        <time>2025-05-30T08:03:15.570Z</time>
      </trkpt>
      <trkpt lat="43.75741" lon="4.24255">
        <ele>56.069526362162</ele>
        <time>2025-05-30T08:03:20.728Z</time>
      </trkpt>
      <trkpt lat="43.75744" lon="4.24259">
        <ele>56.458836830051</ele>
        <time>2025-05-30T08:03:25.892Z</time>
      </trkpt>
      <trkpt lat="43.75746" lon="4.24266">
        <ele>57.321595980846</ele>
        <time>2025-05-30T08:03:30.908Z</time>
      </trkpt>
      <trkpt lat="43.75752" lon="4.24271">
        <ele>58.003073569652</ele>
        <time>2025-05-30T08:03:36.443Z</time>
      </trkpt>
      <trkpt lat="43.75757" lon="4.24278">
        <ele>58.914456166839</ele>
        <time>2025-05-30T08:03:41.646Z</time>
      </trkpt>
      <trkpt lat="43.75764" lon="4.24282">
        <ele>59.300738109859</ele>
        <time>2025-05-30T08:03:47.266Z</time>
      </trkpt>
      <trkpt lat="43.7577" lon="4.24286">
        <ele>59.620619037592</ele>
        <time>2025-05-30T08:03:52.895Z</time>
      </trkpt>
      <trkpt lat="43.75776" lon="4.24291">
        <ele>60.08456233567</ele>
        <time>2025-05-30T08:03:57.911Z</time>
      </trkpt>
      <trkpt lat="43.75782" lon="4.243">
        <ele>61.009206779302</ele>
        <time>2025-05-30T08:04:03.732Z</time>
      </trkpt>
      <trkpt lat="43.7579" lon="4.24306">
        <ele>61.098061906236</ele>
        <time>2025-05-30T08:04:08.943Z</time>
      </trkpt>
      <trkpt lat="43.75798" lon="4.24309">
        <ele>60.691890517181</ele>
        <time>2025-05-30T08:04:14.511Z</time>
      </trkpt>
      <trkpt lat="43.75805" lon="4.24313">
        <ele>60.271237510647</ele>
        <time>2025-05-30T08:04:20.488Z</time>
      </trkpt>
      <trkpt lat="43.75812" lon="4.24315">
        <ele>59.590437810309</ele>
        <time>2025-05-30T08:04:25.690Z</time>
      </trkpt>
      <trkpt lat="43.75817" lon="4.24323">
        <ele>59.983487035342</ele>
        <time>2025-05-30T08:04:30.908Z</time>
      </trkpt>
      <trkpt lat="43.75823" lon="4.24327">
        <ele>59.723788475112</ele>
        <time>2025-05-30T08:04:36.885Z</time>
      </trkpt>
      <trkpt lat="43.75827" lon="4.24335">
        <ele>59.793692190357</ele>
        <time>2025-05-30T08:04:42.383Z</time>
      </trkpt>
      <trkpt lat="43.75829" lon="4.24327">
        <ele>58.68462340519</ele>
        <time>2025-05-30T08:04:47.778Z</time>
      </trkpt>
      <trkpt lat="43.75834" lon="4.24326">
        <ele>57.833367742914</ele>
        <time>2025-05-30T08:04:52.895Z</time>
      </trkpt>
      <trkpt lat="43.7584" lon="4.24328">
        <ele>57.17240645091</ele>
        <time>2025-05-30T08:04:58.338Z</time>
      </trkpt>
      <trkpt lat="43.75846" lon="4.24327">
        <ele>56.337794470796</ele>
        <time>2025-05-30T08:05:03.354Z</time>
      </trkpt>
      <trkpt lat="43.75849" lon="4.24321">
        <ele>55.550723597675</ele>
        <time>2025-05-30T08:05:08.446Z</time>
      </trkpt>
      <trkpt lat="43.75854" lon="4.24315">
        <ele>54.723191367875</ele>
        <time>2025-05-30T08:05:14.110Z</time>
      </trkpt>
      <trkpt lat="43.7586" lon="4.24316">
        <ele>54.224720587047</ele>
        <time>2025-05-30T08:05:19.526Z</time>
      </trkpt>
      <trkpt lat="43.75862" lon="4.24307">
        <ele>53.616273587061</ele>
        <time>2025-05-30T08:05:24.605Z</time>
      </trkpt>
      <trkpt lat="43.7586" lon="4.24298">
        <ele>53.161714979353</ele>
        <time>2025-05-30T08:05:29.809Z</time>
      </trkpt>
      <trkpt lat="43.75858" lon="4.2429">
        <ele>52.934374741686</ele>
        <time>2025-05-30T08:05:35.078Z</time>
      </trkpt>
      <trkpt lat="43.75862" lon="4.24282">
        <ele>52.471500535179</ele>
        <time>2025-05-30T08:05:40.427Z</time>
      </trkpt>
      <trkpt lat="43.75867" lon="4.24283">
        <ele>52.236550004967</ele>
        <time>2025-05-30T08:05:45.808Z</time>
      </trkpt>
      <trkpt lat="43.7587" lon="4.24277">
        <ele>51.881747778294</ele>
        <time>2025-05-30T08:05:50.851Z</time>
      </trkpt>
      <trkpt lat="43.75876" lon="4.24274">
        <ele>51.528537910338</ele>
        <time>2025-05-30T08:05:55.866Z</time>
      </trkpt>
      <trkpt lat="43.75882" lon="4.24268">
        <ele>51.107487467433</ele>
        <time>2025-05-30T08:06:01.267Z</time>
      </trkpt>
      <trkpt lat="43.75882" lon="4.2426">
        <ele>50.929802587509</ele>
        <time>2025-05-30T08:06:06.603Z</time>
      </trkpt>
      <trkpt lat="43.7588" lon="4.24252">
        <ele>50.777596573804</ele>
        <time>2025-05-30T08:06:11.876Z</time>
      </trkpt>
      <trkpt lat="43.75878" lon="4.24245">
        <ele>50.709400491167</ele>
        <time>2025-05-30T08:06:17.312Z</time>
      </trkpt>
      <trkpt lat="43.7588" lon="4.24238">
        <ele>50.43472698582</ele>
        <time>2025-05-30T08:06:22.589Z</time>
      </trkpt>
      <trkpt lat="43.75886" lon="4.24235">
        <ele>50.199183976475</ele>
        <time>2025-05-30T08:06:27.885Z</time>
      </trkpt>
      <trkpt lat="43.75891" lon="4.24231">
        <ele>50.000715235936</ele>
        <time>2025-05-30T08:06:33.090Z</time>
      </trkpt>
      <trkpt lat="43.75896" lon="4.24225">
        <ele>49.758388796729</ele>
        <time>2025-05-30T08:06:38.667Z</time>
      </trkpt>
      <trkpt lat="43.75901" lon="4.24221">
        <ele>49.551599130068</ele>
        <time>2025-05-30T08:06:43.681Z</time>
      </trkpt>
      <trkpt lat="43.75907" lon="4.24216">
        <ele>49.365248304901</ele>
        <time>2025-05-30T08:06:48.745Z</time>
      </trkpt>
      <trkpt lat="43.75913" lon="4.24213">
        <ele>49.264082079551</ele>
        <time>2025-05-30T08:06:54.329Z</time>
      </trkpt>
      <trkpt lat="43.75918" lon="4.24212">
        <ele>49.204357845957</ele>
        <time>2025-05-30T08:06:59.409Z</time>
      </trkpt>
      <trkpt lat="43.75926" lon="4.24217">
        <ele>49.124842860217</ele>
        <time>2025-05-30T08:07:05.447Z</time>
      </trkpt>
      <trkpt lat="43.75929" lon="4.24225">
        <ele>49.082446229769</ele>
        <time>2025-05-30T08:07:10.828Z</time>
      </trkpt>
      <trkpt lat="43.75934" lon="4.24233">
        <ele>49.01382671577</ele>
        <time>2025-05-30T08:07:15.914Z</time>
      </trkpt>
      <trkpt lat="43.75939" lon="4.2424">
        <ele>48.948977693326</ele>
        <time>2025-05-30T08:07:21.138Z</time>
      </trkpt>
      <trkpt lat="43.75945" lon="4.24243">
        <ele>48.863091480431</ele>
        <time>2025-05-30T08:07:26.856Z</time>
      </trkpt>
      <trkpt lat="43.75951" lon="4.24247">
        <ele>48.853060490054</ele>
        <time>2025-05-30T08:07:32.291Z</time>
      </trkpt>
      <trkpt lat="43.75956" lon="4.24252">
        <ele>48.833760675856</ele>
        <time>2025-05-30T08:07:37.733Z</time>
      </trkpt>
      <trkpt lat="43.75959" lon="4.24261">
        <ele>48.803997119039</ele>
        <time>2025-05-30T08:07:42.836Z</time>
      </trkpt>
      <trkpt lat="43.75963" lon="4.24272">
        <ele>48.774552496353</ele>
        <time>2025-05-30T08:07:47.854Z</time>
      </trkpt>
      <trkpt lat="43.75967" lon="4.24282">
        <ele>48.738756617402</ele>
        <time>2025-05-30T08:07:53.539Z</time>
      </trkpt>
      <trkpt lat="43.75968" lon="4.24289">
        <ele>48.721714475433</ele>
        <time>2025-05-30T08:07:58.750Z</time>
      </trkpt>
      <trkpt lat="43.75972" lon="4.24299">
        <ele>48.701982317485</ele>
        <time>2025-05-30T08:08:03.862Z</time>
      </trkpt>
      <trkpt lat="43.75979" lon="4.24308">
        <ele>48.65569710654</ele>
        <time>2025-05-30T08:08:09.398Z</time>
      </trkpt>
      <trkpt lat="43.75983" lon="4.24317">
        <ele>48.642422062722</ele>
        <time>2025-05-30T08:08:14.751Z</time>
      </trkpt>
      <trkpt lat="43.75986" lon="4.24328">
        <ele>48.631990672705</ele>
        <time>2025-05-30T08:08:20.497Z</time>
      </trkpt>
      <trkpt lat="43.7599" lon="4.24334">
        <ele>48.62156974499</ele>
        <time>2025-05-30T08:08:25.592Z</time>
      </trkpt>
      <trkpt lat="43.75995" lon="4.2434">
        <ele>48.616247211078</ele>
        <time>2025-05-30T08:08:31.215Z</time>
      </trkpt>
      <trkpt lat="43.76001" lon="4.24343">
        <ele>48.620056669697</ele>
        <time>2025-05-30T08:08:36.841Z</time>
      </trkpt>
      <trkpt lat="43.76006" lon="4.24345">
        <ele>48.606664356422</ele>
        <time>2025-05-30T08:08:41.857Z</time>
      </trkpt>
      <trkpt lat="43.7601" lon="4.24348">
        <ele>48.608535084824</ele>
        <time>2025-05-30T08:08:46.873Z</time>
      </trkpt>
      <trkpt lat="43.76014" lon="4.24348">
        <ele>48.627734172107</ele>
        <time>2025-05-30T08:08:52.077Z</time>
      </trkpt>
      <trkpt lat="43.76019" lon="4.2435">
        <ele>48.634683650859</ele>
        <time>2025-05-30T08:08:57.866Z</time>
      </trkpt>
      <trkpt lat="43.76027" lon="4.2435">
        <ele>48.649522852493</ele>
        <time>2025-05-30T08:09:03.120Z</time>
      </trkpt>
      <trkpt lat="43.76034" lon="4.24346">
        <ele>48.69109321445</ele>
        <time>2025-05-30T08:09:08.859Z</time>
      </trkpt>
      <trkpt lat="43.7604" lon="4.24343">
        <ele>48.760458621538</ele>
        <time>2025-05-30T08:09:14.836Z</time>
      </trkpt>
      <trkpt lat="43.76045" lon="4.24338">
        <ele>48.862917166949</ele>
        <time>2025-05-30T08:09:19.873Z</time>
      </trkpt>
      <trkpt lat="43.76051" lon="4.24335">
        <ele>49.001523380099</ele>
        <time>2025-05-30T08:09:25.538Z</time>
      </trkpt>
      <trkpt lat="43.76059" lon="4.24335">
        <ele>49.161430665025</ele>
        <time>2025-05-30T08:09:30.811Z</time>
      </trkpt>
      <trkpt lat="43.76066" lon="4.24336">
        <ele>49.415979249997</ele>
        <time>2025-05-30T08:09:35.862Z</time>
      </trkpt>
      <trkpt lat="43.76074" lon="4.24333">
        <ele>49.686959272506</ele>
        <time>2025-05-30T08:09:41.433Z</time>
      </trkpt>
      <trkpt lat="43.76079" lon="4.24334">
        <ele>49.911712975244</ele>
        <time>2025-05-30T08:09:46.856Z</time>
      </trkpt>
      <trkpt lat="43.76081" lon="4.24334">
        <ele>49.961159902071</ele>
        <time>2025-05-30T08:09:51.871Z</time>
      </trkpt>
      <trkpt lat="43.76079" lon="4.24334">
        <ele>49.925436922693</ele>
        <time>2025-05-30T08:09:56.888Z</time>
      </trkpt>
      <trkpt lat="43.76078" lon="4.24334">
        <ele>49.873849303898</ele>
        <time>2025-05-30T08:10:05.784Z</time>
      </trkpt>
      <trkpt lat="43.76077" lon="4.24333">
        <ele>49.839877989359</ele>
        <time>2025-05-30T08:10:14.784Z</time>
      </trkpt>
      <trkpt lat="43.76077" lon="4.2433">
        <ele>49.847755155913</ele>
        <time>2025-05-30T08:10:20.078Z</time>
      </trkpt>
      <trkpt lat="43.76081" lon="4.24319">
        <ele>49.955706710033</ele>
        <time>2025-05-30T08:10:25.574Z</time>
      </trkpt>
      <trkpt lat="43.76085" lon="4.24312">
        <ele>50.019147612331</ele>
        <time>2025-05-30T08:10:31.017Z</time>
      </trkpt>
      <trkpt lat="43.76089" lon="4.24305">
        <ele>50.219709974257</ele>
        <time>2025-05-30T08:10:36.877Z</time>
      </trkpt>
      <trkpt lat="43.76093" lon="4.24295">
        <ele>50.402399003399</ele>
        <time>2025-05-30T08:10:42.751Z</time>
      </trkpt>
      <trkpt lat="43.76097" lon="4.24286">
        <ele>50.620590451308</ele>
        <time>2025-05-30T08:10:47.856Z</time>
      </trkpt>
      <trkpt lat="43.76101" lon="4.24278">
        <ele>50.852348877608</ele>
        <time>2025-05-30T08:10:52.887Z</time>
      </trkpt>
      <trkpt lat="43.76105" lon="4.24271">
        <ele>51.035951959899</ele>
        <time>2025-05-30T08:10:57.915Z</time>
      </trkpt>
      <trkpt lat="43.76107" lon="4.2426">
        <ele>51.237870442762</ele>
        <time>2025-05-30T08:11:03.750Z</time>
      </trkpt>
      <trkpt lat="43.76109" lon="4.2425">
        <ele>51.454439974133</ele>
        <time>2025-05-30T08:11:09.692Z</time>
      </trkpt>
      <trkpt lat="43.7611" lon="4.2424">
        <ele>51.632309782818</ele>
        <time>2025-05-30T08:11:14.895Z</time>
      </trkpt>
      <trkpt lat="43.76112" lon="4.24229">
        <ele>51.852367694341</ele>
        <time>2025-05-30T08:11:20.355Z</time>
      </trkpt>
      <trkpt lat="43.76112" lon="4.24219">
        <ele>52.038548787527</ele>
        <time>2025-05-30T08:11:25.868Z</time>
      </trkpt>
      <trkpt lat="43.76113" lon="4.24212">
        <ele>52.191553616168</ele>
        <time>2025-05-30T08:11:30.884Z</time>
      </trkpt>
      <trkpt lat="43.76114" lon="4.24202">
        <ele>52.39036621746</ele>
        <time>2025-05-30T08:11:35.893Z</time>
      </trkpt>
      <trkpt lat="43.76115" lon="4.24192">
        <ele>52.584675604332</ele>
        <time>2025-05-30T08:11:41.231Z</time>
      </trkpt>
      <trkpt lat="43.76117" lon="4.24181">
        <ele>52.853360035007</ele>
        <time>2025-05-30T08:11:46.754Z</time>
      </trkpt>
      <trkpt lat="43.76118" lon="4.24172">
        <ele>53.087740766243</ele>
        <time>2025-05-30T08:11:52.216Z</time>
      </trkpt>
      <trkpt lat="43.7612" lon="4.24163">
        <ele>53.289177484275</ele>
        <time>2025-05-30T08:11:57.917Z</time>
      </trkpt>
      <trkpt lat="43.7612" lon="4.24151">
        <ele>53.540886954547</ele>
        <time>2025-05-30T08:12:03.333Z</time>
      </trkpt>
      <trkpt lat="43.76122" lon="4.24142">
        <ele>53.766907410442</ele>
        <time>2025-05-30T08:12:08.716Z</time>
      </trkpt>
      <trkpt lat="43.76123" lon="4.24132">
        <ele>54.014443679732</ele>
        <time>2025-05-30T08:12:14.194Z</time>
      </trkpt>
      <trkpt lat="43.76122" lon="4.24123">
        <ele>54.190130262085</ele>
        <time>2025-05-30T08:12:19.611Z</time>
      </trkpt>
      <trkpt lat="43.76118" lon="4.24114">
        <ele>54.335073793913</ele>
        <time>2025-05-30T08:12:25.179Z</time>
      </trkpt>
      <trkpt lat="43.7611" lon="4.24113">
        <ele>54.253080892452</ele>
        <time>2025-05-30T08:12:30.435Z</time>
      </trkpt>
      <trkpt lat="43.76102" lon="4.24116">
        <ele>54.028449959304</ele>
        <time>2025-05-30T08:12:35.851Z</time>
      </trkpt>
      <trkpt lat="43.76093" lon="4.24118">
        <ele>53.829635058735</ele>
        <time>2025-05-30T08:12:40.901Z</time>
      </trkpt>
      <trkpt lat="43.76087" lon="4.24122">
        <ele>53.657393484121</ele>
        <time>2025-05-30T08:12:46.497Z</time>
      </trkpt>
      <trkpt lat="43.76081" lon="4.24121">
        <ele>53.628631108605</ele>
        <time>2025-05-30T08:12:51.816Z</time>
      </trkpt>
      <trkpt lat="43.76073" lon="4.24118">
        <ele>53.668406032696</ele>
        <time>2025-05-30T08:12:57.135Z</time>
      </trkpt>
      <trkpt lat="43.76066" lon="4.24114">
        <ele>53.723510821824</ele>
        <time>2025-05-30T08:13:02.499Z</time>
      </trkpt>
      <trkpt lat="43.76058" lon="4.2411">
        <ele>53.742417009134</ele>
        <time>2025-05-30T08:13:07.836Z</time>
      </trkpt>
      <trkpt lat="43.76051" lon="4.24116">
        <ele>53.36242778507</ele>
        <time>2025-05-30T08:13:13.633Z</time>
      </trkpt>
      <trkpt lat="43.76046" lon="4.24118">
        <ele>53.184070384457</ele>
        <time>2025-05-30T08:13:18.898Z</time>
      </trkpt>
      <trkpt lat="43.76037" lon="4.24116">
        <ele>53.116930399381</ele>
        <time>2025-05-30T08:13:24.733Z</time>
      </trkpt>
      <trkpt lat="43.7603" lon="4.24113">
        <ele>53.078585044784</ele>
        <time>2025-05-30T08:13:29.890Z</time>
      </trkpt>
      <trkpt lat="43.76023" lon="4.24114">
        <ele>52.888424970677</ele>
        <time>2025-05-30T08:13:34.906Z</time>
      </trkpt>
      <trkpt lat="43.76016" lon="4.24113">
        <ele>52.749849495653</ele>
        <time>2025-05-30T08:13:39.941Z</time>
      </trkpt>
      <trkpt lat="43.76008" lon="4.24117">
        <ele>52.344903852155</ele>
        <time>2025-05-30T08:13:45.519Z</time>
      </trkpt>
      <trkpt lat="43.76001" lon="4.24117">
        <ele>52.122871413913</ele>
        <time>2025-05-30T08:13:50.625Z</time>
      </trkpt>
      <trkpt lat="43.75994" lon="4.24117">
        <ele>51.951119159865</ele>
        <time>2025-05-30T08:13:55.844Z</time>
      </trkpt>
      <trkpt lat="43.75987" lon="4.24117">
        <ele>51.81409880843</ele>
        <time>2025-05-30T08:14:01.182Z</time>
      </trkpt>
      <trkpt lat="43.75981" lon="4.24118">
        <ele>51.607835770596</ele>
        <time>2025-05-30T08:14:06.403Z</time>
      </trkpt>
      <trkpt lat="43.75972" lon="4.24121">
        <ele>51.321965018834</ele>
        <time>2025-05-30T08:14:11.918Z</time>
      </trkpt>
      <trkpt lat="43.75963" lon="4.24124">
        <ele>50.98666182628</ele>
        <time>2025-05-30T08:14:17.921Z</time>
      </trkpt>
      <trkpt lat="43.75954" lon="4.24122">
        <ele>50.832614086731</ele>
        <time>2025-05-30T08:14:23.179Z</time>
      </trkpt>
      <trkpt lat="43.75947" lon="4.24122">
        <ele>50.656736949167</ele>
        <time>2025-05-30T08:14:28.859Z</time>
      </trkpt>
      <trkpt lat="43.75939" lon="4.24121">
        <ele>50.552075981825</ele>
        <time>2025-05-30T08:14:34.537Z</time>
      </trkpt>
      <trkpt lat="43.75939" lon="4.24112">
        <ele>50.858370070324</ele>
        <time>2025-05-30T08:14:40.086Z</time>
      </trkpt>
      <trkpt lat="43.75944" lon="4.24103">
        <ele>51.347317804277</ele>
        <time>2025-05-30T08:14:45.477Z</time>
      </trkpt>
      <trkpt lat="43.75945" lon="4.24094">
        <ele>51.808816450513</ele>
        <time>2025-05-30T08:14:50.566Z</time>
      </trkpt>
      <trkpt lat="43.75949" lon="4.24088">
        <ele>52.290658863095</ele>
        <time>2025-05-30T08:14:56.081Z</time>
      </trkpt>
      <trkpt lat="43.75947" lon="4.24079">
        <ele>52.688140300571</ele>
        <time>2025-05-30T08:15:01.912Z</time>
      </trkpt>
      <trkpt lat="43.75945" lon="4.24071">
        <ele>53.078005303204</ele>
        <time>2025-05-30T08:15:06.929Z</time>
      </trkpt>
      <trkpt lat="43.75939" lon="4.24065">
        <ele>53.141989503512</ele>
        <time>2025-05-30T08:15:11.983Z</time>
      </trkpt>
      <trkpt lat="43.75932" lon="4.24067">
        <ele>52.726964765155</ele>
        <time>2025-05-30T08:15:17.401Z</time>
      </trkpt>
      <trkpt lat="43.75926" lon="4.24067">
        <ele>52.479734301886</ele>
        <time>2025-05-30T08:15:22.444Z</time>
      </trkpt>
      <trkpt lat="43.75921" lon="4.24063">
        <ele>52.486265543484</ele>
        <time>2025-05-30T08:15:27.849Z</time>
      </trkpt>
      <trkpt lat="43.75917" lon="4.24069">
        <ele>52.073402470083</ele>
        <time>2025-05-30T08:15:32.866Z</time>
      </trkpt>
      <trkpt lat="43.75912" lon="4.24064">
        <ele>52.140592933219</ele>
        <time>2025-05-30T08:15:38.160Z</time>
      </trkpt>
      <trkpt lat="43.75906" lon="4.24057">
        <ele>52.269295255608</ele>
        <time>2025-05-30T08:15:43.684Z</time>
      </trkpt>
      <trkpt lat="43.75899" lon="4.24054">
        <ele>52.197910506518</ele>
        <time>2025-05-30T08:15:48.780Z</time>
      </trkpt>
      <trkpt lat="43.75895" lon="4.24046">
        <ele>52.450613902589</ele>
        <time>2025-05-30T08:15:54.321Z</time>
      </trkpt>
      <trkpt lat="43.75898" lon="4.2404">
        <ele>52.734486849887</ele>
        <time>2025-05-30T08:15:59.321Z</time>
      </trkpt>
      <trkpt lat="43.75901" lon="4.2403">
        <ele>53.273083200484</ele>
        <time>2025-05-30T08:16:04.462Z</time>
      </trkpt>
      <trkpt lat="43.759" lon="4.2402">
        <ele>53.728365043421</ele>
        <time>2025-05-30T08:16:09.902Z</time>
      </trkpt>
      <trkpt lat="43.75902" lon="4.24009">
        <ele>54.24416441421</ele>
        <time>2025-05-30T08:16:14.936Z</time>
      </trkpt>
      <trkpt lat="43.75903" lon="4.23999">
        <ele>54.770732222978</ele>
        <time>2025-05-30T08:16:20.125Z</time>
      </trkpt>
      <trkpt lat="43.75904" lon="4.2399">
        <ele>55.303318527601</ele>
        <time>2025-05-30T08:16:25.247Z</time>
      </trkpt>
      <trkpt lat="43.75905" lon="4.2398">
        <ele>55.827218367842</ele>
        <time>2025-05-30T08:16:30.842Z</time>
      </trkpt>
      <trkpt lat="43.75906" lon="4.2397">
        <ele>56.340974886247</ele>
        <time>2025-05-30T08:16:36.463Z</time>
      </trkpt>
      <trkpt lat="43.75906" lon="4.23962">
        <ele>56.55974207198</ele>
        <time>2025-05-30T08:16:41.939Z</time>
      </trkpt>
      <trkpt lat="43.75905" lon="4.23953">
        <ele>56.810088574626</ele>
        <time>2025-05-30T08:16:47.742Z</time>
      </trkpt>
      <trkpt lat="43.7591" lon="4.23951">
        <ele>57.183765087233</ele>
        <time>2025-05-30T08:16:52.748Z</time>
      </trkpt>
      <trkpt lat="43.75916" lon="4.23953">
        <ele>57.476587078941</ele>
        <time>2025-05-30T08:16:57.927Z</time>
      </trkpt>
      <trkpt lat="43.75922" lon="4.23947">
        <ele>57.92217583171</ele>
        <time>2025-05-30T08:17:03.502Z</time>
      </trkpt>
      <trkpt lat="43.7592" lon="4.23942">
        <ele>57.931036163694</ele>
        <time>2025-05-30T08:17:08.515Z</time>
      </trkpt>
      <trkpt lat="43.75916" lon="4.23936">
        <ele>57.852847556989</ele>
        <time>2025-05-30T08:17:13.943Z</time>
      </trkpt>
      <trkpt lat="43.75913" lon="4.2393">
        <ele>57.737351106058</ele>
        <time>2025-05-30T08:17:19.520Z</time>
      </trkpt>
      <trkpt lat="43.75913" lon="4.23919">
        <ele>57.80925474907</ele>
        <time>2025-05-30T08:17:25.912Z</time>
      </trkpt>
      <trkpt lat="43.75917" lon="4.23908">
        <ele>58.031448274691</ele>
        <time>2025-05-30T08:17:31.642Z</time>
      </trkpt>
      <trkpt lat="43.75921" lon="4.23901">
        <ele>58.302024697817</ele>
        <time>2025-05-30T08:17:37.204Z</time>
      </trkpt>
      <trkpt lat="43.75927" lon="4.23893">
        <ele>58.460114710185</ele>
        <time>2025-05-30T08:17:42.662Z</time>
      </trkpt>
      <trkpt lat="43.75928" lon="4.23884">
        <ele>58.359000491296</ele>
        <time>2025-05-30T08:17:48.169Z</time>
      </trkpt>
      <trkpt lat="43.7593" lon="4.23876">
        <ele>58.244228496737</ele>
        <time>2025-05-30T08:17:53.662Z</time>
      </trkpt>
      <trkpt lat="43.75929" lon="4.23868">
        <ele>58.026971630952</ele>
        <time>2025-05-30T08:17:58.892Z</time>
      </trkpt>
      <trkpt lat="43.75925" lon="4.23862">
        <ele>57.68035116059</ele>
        <time>2025-05-30T08:18:03.919Z</time>
      </trkpt>
      <trkpt lat="43.75924" lon="4.23854">
        <ele>57.421979512461</ele>
        <time>2025-05-30T08:18:09.124Z</time>
      </trkpt>
      <trkpt lat="43.75926" lon="4.23843">
        <ele>57.212232004968</ele>
        <time>2025-05-30T08:18:14.566Z</time>
      </trkpt>
      <trkpt lat="43.75928" lon="4.23832">
        <ele>57.022078134335</ele>
        <time>2025-05-30T08:18:19.583Z</time>
      </trkpt>
      <trkpt lat="43.75931" lon="4.23823">
        <ele>56.883546210505</ele>
        <time>2025-05-30T08:18:24.884Z</time>
      </trkpt>
      <trkpt lat="43.75935" lon="4.23817">
        <ele>56.937013365434</ele>
        <time>2025-05-30T08:18:30.106Z</time>
      </trkpt>
      <trkpt lat="43.75934" lon="4.2381">
        <ele>56.564510719742</ele>
        <time>2025-05-30T08:18:35.665Z</time>
      </trkpt>
      <trkpt lat="43.75929" lon="4.23804">
        <ele>56.02627757016</ele>
        <time>2025-05-30T08:18:40.788Z</time>
      </trkpt>
      <trkpt lat="43.75925" lon="4.23797">
        <ele>55.582686069476</ele>
        <time>2025-05-30T08:18:45.855Z</time>
      </trkpt>
      <trkpt lat="43.75921" lon="4.23797">
        <ele>55.456842357206</ele>
        <time>2025-05-30T08:18:51.265Z</time>
      </trkpt>
      <trkpt lat="43.75916" lon="4.2379">
        <ele>55.294285274985</ele>
        <time>2025-05-30T08:18:56.848Z</time>
      </trkpt>
      <trkpt lat="43.75913" lon="4.23784">
        <ele>55.245769405611</ele>
        <time>2025-05-30T08:19:01.864Z</time>
      </trkpt>
      <trkpt lat="43.75908" lon="4.23786">
        <ele>55.018306235243</ele>
        <time>2025-05-30T08:19:07.124Z</time>
      </trkpt>
      <trkpt lat="43.75902" lon="4.23788">
        <ele>54.666465001662</ele>
        <time>2025-05-30T08:19:12.300Z</time>
      </trkpt>
      <trkpt lat="43.75896" lon="4.23785">
        <ele>54.422408974369</ele>
        <time>2025-05-30T08:19:17.416Z</time>
      </trkpt>
      <trkpt lat="43.75891" lon="4.2378">
        <ele>54.210926806928</ele>
        <time>2025-05-30T08:19:22.841Z</time>
      </trkpt>
      <trkpt lat="43.75889" lon="4.23776">
        <ele>54.035322149589</ele>
        <time>2025-05-30T08:19:27.916Z</time>
      </trkpt>
      <trkpt lat="43.75886" lon="4.23766">
        <ele>53.877087236254</ele>
        <time>2025-05-30T08:19:33.414Z</time>
      </trkpt>
      <trkpt lat="43.75878" lon="4.23761">
        <ele>53.88163761611</ele>
        <time>2025-05-30T08:19:38.920Z</time>
      </trkpt>
      <trkpt lat="43.75873" lon="4.23756">
        <ele>54.509787171658</ele>
        <time>2025-05-30T08:19:44.129Z</time>
      </trkpt>
      <trkpt lat="43.75869" lon="4.2375">
        <ele>55.474147628933</ele>
        <time>2025-05-30T08:19:49.361Z</time>
      </trkpt>
      <trkpt lat="43.75868" lon="4.23745">
        <ele>56.076002688976</ele>
        <time>2025-05-30T08:19:54.796Z</time>
      </trkpt>
      <trkpt lat="43.75869" lon="4.23746">
        <ele>55.850963843206</ele>
        <time>2025-05-30T08:19:59.918Z</time>
      </trkpt>
      <trkpt lat="43.75869" lon="4.23744">
        <ele>56.04949872876</ele>
        <time>2025-05-30T08:20:05.877Z</time>
      </trkpt>
      <trkpt lat="43.75869" lon="4.2374">
        <ele>56.43833257608</ele>
        <time>2025-05-30T08:20:11.053Z</time>
      </trkpt>
      <trkpt lat="43.75869" lon="4.23734">
        <ele>57.036759446958</ele>
        <time>2025-05-30T08:20:16.337Z</time>
      </trkpt>
      <trkpt lat="43.75868" lon="4.2372">
        <ele>58.066902362024</ele>
        <time>2025-05-30T08:20:21.593Z</time>
      </trkpt>
      <trkpt lat="43.75869" lon="4.23705">
        <ele>58.755174061462</ele>
        <time>2025-05-30T08:20:27.537Z</time>
      </trkpt>
      <trkpt lat="43.75872" lon="4.23699">
        <ele>58.929805546632</ele>
        <time>2025-05-30T08:20:32.826Z</time>
      </trkpt>
      <trkpt lat="43.75879" lon="4.23698">
        <ele>58.751920442693</ele>
        <time>2025-05-30T08:20:38.218Z</time>
      </trkpt>
      <trkpt lat="43.75884" lon="4.23702">
        <ele>58.330651752163</ele>
        <time>2025-05-30T08:20:43.341Z</time>
      </trkpt>
      <trkpt lat="43.75886" lon="4.23709">
        <ele>57.790500274469</ele>
        <time>2025-05-30T08:20:48.820Z</time>
      </trkpt>
      <trkpt lat="43.75886" lon="4.23717">
        <ele>57.108547149319</ele>
        <time>2025-05-30T08:20:53.931Z</time>
      </trkpt>
      <trkpt lat="43.7589" lon="4.23727">
        <ele>55.714936895607</ele>
        <time>2025-05-30T08:20:59.617Z</time>
      </trkpt>
      <trkpt lat="43.75895" lon="4.23725">
        <ele>55.302305359571</ele>
        <time>2025-05-30T08:21:05.238Z</time>
      </trkpt>
      <trkpt lat="43.75897" lon="4.23724">
        <ele>55.296752177111</ele>
        <time>2025-05-30T08:21:10.336Z</time>
      </trkpt>
      <trkpt lat="43.75899" lon="4.23731">
        <ele>54.768806058925</ele>
        <time>2025-05-30T08:21:15.466Z</time>
      </trkpt>
      <trkpt lat="43.75896" lon="4.2374">
        <ele>54.57095383706</ele>
        <time>2025-05-30T08:21:20.836Z</time>
      </trkpt>
      <trkpt lat="43.759" lon="4.23747">
        <ele>54.86008190456</ele>
        <time>2025-05-30T08:21:26.493Z</time>
      </trkpt>
      <trkpt lat="43.75907" lon="4.23747">
        <ele>55.636023097206</ele>
        <time>2025-05-30T08:21:31.520Z</time>
      </trkpt>
      <trkpt lat="43.75913" lon="4.23744">
        <ele>56.031301860121</ele>
        <time>2025-05-30T08:21:36.953Z</time>
      </trkpt>
      <trkpt lat="43.75916" lon="4.23751">
        <ele>56.413071232741</ele>
        <time>2025-05-30T08:21:41.969Z</time>
      </trkpt>
      <trkpt lat="43.75917" lon="4.23758">
        <ele>56.413861938667</ele>
        <time>2025-05-30T08:21:47.140Z</time>
      </trkpt>
      <trkpt lat="43.7592" lon="4.2376">
        <ele>56.582944419671</ele>
        <time>2025-05-30T08:21:52.467Z</time>
      </trkpt>
      <trkpt lat="43.75926" lon="4.23768">
        <ele>56.500128737111</ele>
        <time>2025-05-30T08:21:58.068Z</time>
      </trkpt>
      <trkpt lat="43.75933" lon="4.23773">
        <ele>56.463684377278</ele>
        <time>2025-05-30T08:22:03.825Z</time>
      </trkpt>
      <trkpt lat="43.75938" lon="4.23781">
        <ele>56.187463065496</ele>
        <time>2025-05-30T08:22:09.446Z</time>
      </trkpt>
      <trkpt lat="43.75944" lon="4.23778">
        <ele>56.52910877545</ele>
        <time>2025-05-30T08:22:14.463Z</time>
      </trkpt>
      <trkpt lat="43.75945" lon="4.23772">
        <ele>56.860525172966</ele>
        <time>2025-05-30T08:22:19.718Z</time>
      </trkpt>
      <trkpt lat="43.75943" lon="4.23766">
        <ele>57.140522874039</ele>
        <time>2025-05-30T08:22:24.875Z</time>
      </trkpt>
      <trkpt lat="43.75939" lon="4.23761">
        <ele>57.283928788539</ele>
        <time>2025-05-30T08:22:30.187Z</time>
      </trkpt>
      <trkpt lat="43.75935" lon="4.23758">
        <ele>57.262692281787</ele>
        <time>2025-05-30T08:22:35.922Z</time>
      </trkpt>
      <trkpt lat="43.75936" lon="4.23758">
        <ele>57.28853254105</ele>
        <time>2025-05-30T08:22:42.912Z</time>
      </trkpt>
      <trkpt lat="43.75938" lon="4.23742">
        <ele>57.720911810792</ele>
        <time>2025-05-30T08:22:48.500Z</time>
      </trkpt>
      <trkpt lat="43.75938" lon="4.23729">
        <ele>57.571245078571</ele>
        <time>2025-05-30T08:22:53.906Z</time>
      </trkpt>
      <trkpt lat="43.75936" lon="4.23719">
        <ele>56.821181900609</ele>
        <time>2025-05-30T08:22:59.820Z</time>
      </trkpt>
      <trkpt lat="43.75933" lon="4.23715">
        <ele>56.349567882522</ele>
        <time>2025-05-30T08:23:04.898Z</time>
      </trkpt>
      <trkpt lat="43.75935" lon="4.23702">
        <ele>55.806461381386</ele>
        <time>2025-05-30T08:23:09.915Z</time>
      </trkpt>
      <trkpt lat="43.75932" lon="4.2369">
        <ele>55.45000444305</ele>
        <time>2025-05-30T08:23:15.200Z</time>
      </trkpt>
      <trkpt lat="43.75929" lon="4.23682">
        <ele>56.261246010407</ele>
        <time>2025-05-30T08:23:20.800Z</time>
      </trkpt>
      <trkpt lat="43.75927" lon="4.23675">
        <ele>57.051062610403</ele>
        <time>2025-05-30T08:23:25.845Z</time>
      </trkpt>
      <trkpt lat="43.75923" lon="4.23672">
        <ele>57.827307240704</ele>
        <time>2025-05-30T08:23:30.861Z</time>
      </trkpt>
      <trkpt lat="43.75918" lon="4.23673">
        <ele>58.30110984746</ele>
        <time>2025-05-30T08:23:36.341Z</time>
      </trkpt>
      <trkpt lat="43.75915" lon="4.23679">
        <ele>58.110333097028</ele>
        <time>2025-05-30T08:23:41.722Z</time>
      </trkpt>
      <trkpt lat="43.75909" lon="4.2368">
        <ele>58.401266149387</ele>
        <time>2025-05-30T08:23:47.005Z</time>
      </trkpt>
      <trkpt lat="43.759" lon="4.23678">
        <ele>58.929822150581</ele>
        <time>2025-05-30T08:23:52.820Z</time>
      </trkpt>
      <trkpt lat="43.75893" lon="4.23679">
        <ele>59.193197442115</ele>
        <time>2025-05-30T08:23:58.264Z</time>
      </trkpt>
      <trkpt lat="43.75889" lon="4.23675">
        <ele>59.462519400229</ele>
        <time>2025-05-30T08:24:03.814Z</time>
      </trkpt>
      <trkpt lat="43.75885" lon="4.23677">
        <ele>59.494391347039</ele>
        <time>2025-05-30T08:24:09.400Z</time>
      </trkpt>
      <trkpt lat="43.7588" lon="4.23678">
        <ele>59.562837011895</ele>
        <time>2025-05-30T08:24:14.604Z</time>
      </trkpt>
      <trkpt lat="43.75876" lon="4.23669">
        <ele>59.967216264504</ele>
        <time>2025-05-30T08:24:19.823Z</time>
      </trkpt>
      <trkpt lat="43.75872" lon="4.23662">
        <ele>60.270901137105</ele>
        <time>2025-05-30T08:24:24.860Z</time>
      </trkpt>
      <trkpt lat="43.7587" lon="4.23653">
        <ele>60.602232184164</ele>
        <time>2025-05-30T08:24:30.064Z</time>
      </trkpt>
      <trkpt lat="43.75867" lon="4.23645">
        <ele>60.922827570942</ele>
        <time>2025-05-30T08:24:35.258Z</time>
      </trkpt>
      <trkpt lat="43.75869" lon="4.23636">
        <ele>61.319441429593</ele>
        <time>2025-05-30T08:24:40.850Z</time>
      </trkpt>
      <trkpt lat="43.75872" lon="4.23628">
        <ele>61.653165488527</ele>
        <time>2025-05-30T08:24:45.880Z</time>
      </trkpt>
      <trkpt lat="43.75876" lon="4.2362">
        <ele>62.011867424209</ele>
        <time>2025-05-30T08:24:51.205Z</time>
      </trkpt>
      <trkpt lat="43.75873" lon="4.23613">
        <ele>62.381273998467</ele>
        <time>2025-05-30T08:24:56.524Z</time>
      </trkpt>
      <trkpt lat="43.75868" lon="4.23607">
        <ele>62.610003459199</ele>
        <time>2025-05-30T08:25:01.877Z</time>
      </trkpt>
      <trkpt lat="43.75863" lon="4.236">
        <ele>62.828182093409</ele>
        <time>2025-05-30T08:25:07.865Z</time>
      </trkpt>
      <trkpt lat="43.7586" lon="4.23594">
        <ele>63.059372435341</ele>
        <time>2025-05-30T08:25:13.246Z</time>
      </trkpt>
      <trkpt lat="43.75859" lon="4.23588">
        <ele>63.283674685146</ele>
        <time>2025-05-30T08:25:18.362Z</time>
      </trkpt>
      <trkpt lat="43.75855" lon="4.23581">
        <ele>63.426323979937</ele>
        <time>2025-05-30T08:25:23.839Z</time>
      </trkpt>
      <trkpt lat="43.75853" lon="4.23572">
        <ele>63.671249777258</ele>
        <time>2025-05-30T08:25:29.237Z</time>
      </trkpt>
      <trkpt lat="43.75852" lon="4.23563">
        <ele>63.835185482501</ele>
        <time>2025-05-30T08:25:34.462Z</time>
      </trkpt>
      <trkpt lat="43.75852" lon="4.23557">
        <ele>63.961276920884</ele>
        <time>2025-05-30T08:25:39.873Z</time>
      </trkpt>
      <trkpt lat="43.75848" lon="4.23557">
        <ele>63.837009821541</ele>
        <time>2025-05-30T08:25:45.347Z</time>
      </trkpt>
      <trkpt lat="43.7585" lon="4.23548">
        <ele>64.244121789762</ele>
        <time>2025-05-30T08:25:50.585Z</time>
      </trkpt>
      <trkpt lat="43.75851" lon="4.23539">
        <ele>64.728154733705</ele>
        <time>2025-05-30T08:25:55.883Z</time>
      </trkpt>
      <trkpt lat="43.75848" lon="4.23528">
        <ele>65.758001812258</ele>
        <time>2025-05-30T08:26:00.886Z</time>
      </trkpt>
      <trkpt lat="43.75849" lon="4.23516">
        <ele>67.04345696289</ele>
        <time>2025-05-30T08:26:06.461Z</time>
      </trkpt>
      <trkpt lat="43.75845" lon="4.23511">
        <ele>67.586296971339</ele>
        <time>2025-05-30T08:26:11.893Z</time>
      </trkpt>
      <trkpt lat="43.75844" lon="4.23506">
        <ele>68.062530724667</ele>
        <time>2025-05-30T08:26:16.909Z</time>
      </trkpt>
      <trkpt lat="43.75843" lon="4.23498">
        <ele>68.706472923972</ele>
        <time>2025-05-30T08:26:22.382Z</time>
      </trkpt>
      <trkpt lat="43.75841" lon="4.23488">
        <ele>69.547947377552</ele>
        <time>2025-05-30T08:26:27.665Z</time>
      </trkpt>
      <trkpt lat="43.75839" lon="4.23483">
        <ele>69.94990281315</ele>
        <time>2025-05-30T08:26:32.940Z</time>
      </trkpt>
      <trkpt lat="43.75838" lon="4.23475">
        <ele>70.646133870739</ele>
        <time>2025-05-30T08:26:38.587Z</time>
      </trkpt>
      <trkpt lat="43.75838" lon="4.23467">
        <ele>71.368418124484</ele>
        <time>2025-05-30T08:26:43.595Z</time>
      </trkpt>
      <trkpt lat="43.7584" lon="4.23458">
        <ele>72.17905800668</ele>
        <time>2025-05-30T08:26:48.928Z</time>
      </trkpt>
      <trkpt lat="43.75839" lon="4.2345">
        <ele>72.734956173477</ele>
        <time>2025-05-30T08:26:54.905Z</time>
      </trkpt>
      <trkpt lat="43.75835" lon="4.23446">
        <ele>72.867402341758</ele>
        <time>2025-05-30T08:27:00.813Z</time>
      </trkpt>
      <trkpt lat="43.75833" lon="4.2344">
        <ele>73.016297030849</ele>
        <time>2025-05-30T08:27:06.711Z</time>
      </trkpt>
      <trkpt lat="43.75832" lon="4.23442">
        <ele>72.952179030628</ele>
        <time>2025-05-30T08:27:11.875Z</time>
      </trkpt>
      <trkpt lat="43.7583" lon="4.23436">
        <ele>73.083549855689</ele>
        <time>2025-05-30T08:27:17.425Z</time>
      </trkpt>
      <trkpt lat="43.75824" lon="4.2343">
        <ele>73.138025898832</ele>
        <time>2025-05-30T08:27:22.975Z</time>
      </trkpt>
      <trkpt lat="43.75823" lon="4.23428">
        <ele>73.187372917633</ele>
        <time>2025-05-30T08:27:28.527Z</time>
      </trkpt>
      <trkpt lat="43.7582" lon="4.23421">
        <ele>73.346667202024</ele>
        <time>2025-05-30T08:27:33.986Z</time>
      </trkpt>
      <trkpt lat="43.75813" lon="4.23418">
        <ele>73.431387924511</ele>
        <time>2025-05-30T08:27:39.823Z</time>
      </trkpt>
      <trkpt lat="43.75811" lon="4.23418">
        <ele>73.439462173276</ele>
        <time>2025-05-30T08:27:44.872Z</time>
      </trkpt>
      <trkpt lat="43.7581" lon="4.23416">
        <ele>73.479818861492</ele>
        <time>2025-05-30T08:27:49.888Z</time>
      </trkpt>
      <trkpt lat="43.75807" lon="4.23414">
        <ele>73.550104784437</ele>
        <time>2025-05-30T08:27:54.904Z</time>
      </trkpt>
      <trkpt lat="43.75798" lon="4.23415">
        <ele>73.710646655899</ele>
        <time>2025-05-30T08:28:00.821Z</time>
      </trkpt>
      <trkpt lat="43.75797" lon="4.2342">
        <ele>73.722882172731</ele>
        <time>2025-05-30T08:28:05.897Z</time>
      </trkpt>
      <trkpt lat="43.75796" lon="4.2342">
        <ele>73.756613282558</ele>
        <time>2025-05-30T08:28:10.914Z</time>
      </trkpt>
      <trkpt lat="43.75795" lon="4.23419">
        <ele>73.77793424889</ele>
        <time>2025-05-30T08:28:16.466Z</time>
      </trkpt>
      <trkpt lat="43.75795" lon="4.23418">
        <ele>73.758563617902</ele>
        <time>2025-05-30T08:28:45.804Z</time>
      </trkpt>
      <trkpt lat="43.75794" lon="4.23418">
        <ele>73.727751517407</ele>
        <time>2025-05-30T08:29:07.804Z</time>
      </trkpt>
      <trkpt lat="43.75792" lon="4.23418">
        <ele>73.67276082342</ele>
        <time>2025-05-30T08:29:16.804Z</time>
      </trkpt>
      <trkpt lat="43.75788" lon="4.23419">
        <ele>73.546639118099</ele>
        <time>2025-05-30T08:29:22.974Z</time>
      </trkpt>
      <trkpt lat="43.75786" lon="4.2342">
        <ele>73.47884302608</ele>
        <time>2025-05-30T08:29:28.900Z</time>
      </trkpt>
      <trkpt lat="43.7579" lon="4.23415">
        <ele>73.60416314606</ele>
        <time>2025-05-30T08:29:34.069Z</time>
      </trkpt>
      <trkpt lat="43.75793" lon="4.23411">
        <ele>73.706959494385</ele>
        <time>2025-05-30T08:29:39.119Z</time>
      </trkpt>
      <trkpt lat="43.75794" lon="4.23405">
        <ele>73.700601713716</ele>
        <time>2025-05-30T08:29:44.385Z</time>
      </trkpt>
      <trkpt lat="43.75794" lon="4.23397">
        <ele>73.56293285459</ele>
        <time>2025-05-30T08:29:49.870Z</time>
      </trkpt>
      <trkpt lat="43.75793" lon="4.2339">
        <ele>73.375431878147</ele>
        <time>2025-05-30T08:29:55.261Z</time>
      </trkpt>
      <trkpt lat="43.75792" lon="4.23384">
        <ele>73.172787695832</ele>
        <time>2025-05-30T08:30:00.501Z</time>
      </trkpt>
      <trkpt lat="43.75791" lon="4.23376">
        <ele>72.783259593764</ele>
        <time>2025-05-30T08:30:05.880Z</time>
      </trkpt>
      <trkpt lat="43.75789" lon="4.23368">
        <ele>72.349056502183</ele>
        <time>2025-05-30T08:30:10.905Z</time>
      </trkpt>
      <trkpt lat="43.75785" lon="4.2336">
        <ele>71.81625097929</ele>
        <time>2025-05-30T08:30:16.806Z</time>
      </trkpt>
      <trkpt lat="43.75782" lon="4.23356">
        <ele>71.57847607564</ele>
        <time>2025-05-30T08:30:21.898Z</time>
      </trkpt>
      <trkpt lat="43.75778" lon="4.23354">
        <ele>71.444334776177</ele>
        <time>2025-05-30T08:30:26.915Z</time>
      </trkpt>
      <trkpt lat="43.75774" lon="4.2335">
        <ele>71.144033277883</ele>
        <time>2025-05-30T08:30:32.841Z</time>
      </trkpt>
      <trkpt lat="43.75773" lon="4.23347">
        <ele>70.83514871018</ele>
        <time>2025-05-30T08:30:38.121Z</time>
      </trkpt>
      <trkpt lat="43.75772" lon="4.23341">
        <ele>70.278499104918</ele>
        <time>2025-05-30T08:30:43.381Z</time>
      </trkpt>
      <trkpt lat="43.75773" lon="4.23337">
        <ele>69.82779186606</ele>
        <time>2025-05-30T08:30:48.902Z</time>
      </trkpt>
      <trkpt lat="43.75772" lon="4.23322">
        <ele>68.274200528549</ele>
        <time>2025-05-30T08:30:54.878Z</time>
      </trkpt>
      <trkpt lat="43.75775" lon="4.23312">
        <ele>67.20597988313</ele>
        <time>2025-05-30T08:31:00.779Z</time>
      </trkpt>
      <trkpt lat="43.75775" lon="4.23305">
        <ele>66.417137209027</ele>
        <time>2025-05-30T08:31:06.505Z</time>
      </trkpt>
      <trkpt lat="43.75777" lon="4.23302">
        <ele>65.987506520947</ele>
        <time>2025-05-30T08:31:11.866Z</time>
      </trkpt>
      <trkpt lat="43.75778" lon="4.233">
        <ele>65.786868490612</ele>
        <time>2025-05-30T08:31:17.250Z</time>
      </trkpt>
      <trkpt lat="43.75782" lon="4.23297">
        <ele>65.594344779293</ele>
        <time>2025-05-30T08:31:22.859Z</time>
      </trkpt>
      <trkpt lat="43.75785" lon="4.23291">
        <ele>65.297478344508</ele>
        <time>2025-05-30T08:31:28.302Z</time>
      </trkpt>
      <trkpt lat="43.7579" lon="4.23283">
        <ele>64.953272652189</ele>
        <time>2025-05-30T08:31:33.428Z</time>
      </trkpt>
      <trkpt lat="43.75797" lon="4.23279">
        <ele>64.810612262181</ele>
        <time>2025-05-30T08:31:38.868Z</time>
      </trkpt>
      <trkpt lat="43.75804" lon="4.23277">
        <ele>64.704494177406</ele>
        <time>2025-05-30T08:31:44.189Z</time>
      </trkpt>
      <trkpt lat="43.75811" lon="4.23272">
        <ele>64.491692653291</ele>
        <time>2025-05-30T08:31:49.570Z</time>
      </trkpt>
      <trkpt lat="43.75814" lon="4.23268">
        <ele>64.353394159638</ele>
        <time>2025-05-30T08:31:54.696Z</time>
      </trkpt>
      <trkpt lat="43.75814" lon="4.23262">
        <ele>64.115248682086</ele>
        <time>2025-05-30T08:31:59.903Z</time>
      </trkpt>
      <trkpt lat="43.75816" lon="4.23255">
        <ele>63.802692263424</ele>
        <time>2025-05-30T08:32:05.059Z</time>
      </trkpt>
      <trkpt lat="43.75818" lon="4.23248">
        <ele>63.475728468517</ele>
        <time>2025-05-30T08:32:10.667Z</time>
      </trkpt>
      <trkpt lat="43.75818" lon="4.23239">
        <ele>63.00332474092</ele>
        <time>2025-05-30T08:32:15.951Z</time>
      </trkpt>
      <trkpt lat="43.75817" lon="4.23231">
        <ele>62.576620304006</ele>
        <time>2025-05-30T08:32:21.079Z</time>
      </trkpt>
      <trkpt lat="43.7582" lon="4.23224">
        <ele>62.353211332625</ele>
        <time>2025-05-30T08:32:26.464Z</time>
      </trkpt>
      <trkpt lat="43.75823" lon="4.23219">
        <ele>62.293293337179</ele>
        <time>2025-05-30T08:32:31.832Z</time>
      </trkpt>
      <trkpt lat="43.7582" lon="4.23216">
        <ele>62.072069743273</ele>
        <time>2025-05-30T08:32:37.180Z</time>
      </trkpt>
      <trkpt lat="43.7582" lon="4.23209">
        <ele>62.025494653647</ele>
        <time>2025-05-30T08:32:42.223Z</time>
      </trkpt>
      <trkpt lat="43.75823" lon="4.232">
        <ele>62.198356721037</ele>
        <time>2025-05-30T08:32:47.703Z</time>
      </trkpt>
      <trkpt lat="43.75825" lon="4.23191">
        <ele>62.364259362602</ele>
        <time>2025-05-30T08:32:52.858Z</time>
      </trkpt>
      <trkpt lat="43.75831" lon="4.23184">
        <ele>62.69851649734</ele>
        <time>2025-05-30T08:32:57.874Z</time>
      </trkpt>
      <trkpt lat="43.75832" lon="4.2318">
        <ele>62.768209015185</ele>
        <time>2025-05-30T08:33:03.850Z</time>
      </trkpt>
      <trkpt lat="43.75834" lon="4.23179">
        <ele>62.871502590794</ele>
        <time>2025-05-30T08:33:09.262Z</time>
      </trkpt>
      <trkpt lat="43.7583" lon="4.23171">
        <ele>62.666629281681</ele>
        <time>2025-05-30T08:33:14.596Z</time>
      </trkpt>
      <trkpt lat="43.75824" lon="4.2316">
        <ele>62.340062042677</ele>
        <time>2025-05-30T08:33:20.138Z</time>
      </trkpt>
      <trkpt lat="43.7582" lon="4.23152">
        <ele>62.117991173075</ele>
        <time>2025-05-30T08:33:25.314Z</time>
      </trkpt>
      <trkpt lat="43.75816" lon="4.23147">
        <ele>61.848158301021</ele>
        <time>2025-05-30T08:33:30.321Z</time>
      </trkpt>
      <trkpt lat="43.7581" lon="4.23141">
        <ele>61.481034036906</ele>
        <time>2025-05-30T08:33:35.943Z</time>
      </trkpt>
      <trkpt lat="43.75806" lon="4.23133">
        <ele>61.16799695978</ele>
        <time>2025-05-30T08:33:41.619Z</time>
      </trkpt>
      <trkpt lat="43.75801" lon="4.23127">
        <ele>60.844122491361</ele>
        <time>2025-05-30T08:33:46.862Z</time>
      </trkpt>
      <trkpt lat="43.75797" lon="4.23121">
        <ele>60.511540989144</ele>
        <time>2025-05-30T08:33:52.360Z</time>
      </trkpt>
      <trkpt lat="43.75795" lon="4.23115">
        <ele>60.201029903385</ele>
        <time>2025-05-30T08:33:57.705Z</time>
      </trkpt>
      <trkpt lat="43.75791" lon="4.23111">
        <ele>59.950775994548</ele>
        <time>2025-05-30T08:34:02.889Z</time>
      </trkpt>
      <trkpt lat="43.75787" lon="4.2311">
        <ele>59.771228670649</ele>
        <time>2025-05-30T08:34:08.004Z</time>
      </trkpt>
      <trkpt lat="43.75782" lon="4.23108">
        <ele>59.480052458292</ele>
        <time>2025-05-30T08:34:13.405Z</time>
      </trkpt>
      <trkpt lat="43.75778" lon="4.23103">
        <ele>59.149292138803</ele>
        <time>2025-05-30T08:34:18.785Z</time>
      </trkpt>
      <trkpt lat="43.75774" lon="4.23101">
        <ele>58.907790390334</ele>
        <time>2025-05-30T08:34:23.901Z</time>
      </trkpt>
      <trkpt lat="43.7577" lon="4.23099">
        <ele>58.682765655171</ele>
        <time>2025-05-30T08:34:29.262Z</time>
      </trkpt>
      <trkpt lat="43.75764" lon="4.23099">
        <ele>58.544966966326</ele>
        <time>2025-05-30T08:34:34.627Z</time>
      </trkpt>
      <trkpt lat="43.75758" lon="4.23096">
        <ele>58.296582645696</ele>
        <time>2025-05-30T08:34:39.924Z</time>
      </trkpt>
      <trkpt lat="43.75753" lon="4.23096">
        <ele>58.102223329941</ele>
        <time>2025-05-30T08:34:44.941Z</time>
      </trkpt>
      <trkpt lat="43.75747" lon="4.23094">
        <ele>57.826236920717</ele>
        <time>2025-05-30T08:34:50.583Z</time>
      </trkpt>
      <trkpt lat="43.75741" lon="4.23098">
        <ele>57.526153094941</ele>
        <time>2025-05-30T08:34:55.934Z</time>
      </trkpt>
      <trkpt lat="43.75736" lon="4.23095">
        <ele>57.142428090657</ele>
        <time>2025-05-30T08:35:00.950Z</time>
      </trkpt>
      <trkpt lat="43.75731" lon="4.23095">
        <ele>56.825992364723</ele>
        <time>2025-05-30T08:35:06.299Z</time>
      </trkpt>
      <trkpt lat="43.75725" lon="4.23096">
        <ele>56.689533924269</ele>
        <time>2025-05-30T08:35:11.786Z</time>
      </trkpt>
      <trkpt lat="43.75721" lon="4.23096">
        <ele>56.578396929956</ele>
        <time>2025-05-30T08:35:16.853Z</time>
      </trkpt>
      <trkpt lat="43.75717" lon="4.23096">
        <ele>56.769066271669</ele>
        <time>2025-05-30T08:35:22.297Z</time>
      </trkpt>
      <trkpt lat="43.75713" lon="4.23095">
        <ele>56.97903898776</ele>
        <time>2025-05-30T08:35:27.324Z</time>
      </trkpt>
      <trkpt lat="43.75711" lon="4.23093">
        <ele>56.987806079434</ele>
        <time>2025-05-30T08:35:32.862Z</time>
      </trkpt>
      <trkpt lat="43.75709" lon="4.23089">
        <ele>56.806689279083</ele>
        <time>2025-05-30T08:35:38.824Z</time>
      </trkpt>
      <trkpt lat="43.75707" lon="4.23088">
        <ele>56.821527629506</ele>
        <time>2025-05-30T08:35:44.481Z</time>
      </trkpt>
      <trkpt lat="43.75702" lon="4.23089">
        <ele>57.058994292582</ele>
        <time>2025-05-30T08:35:49.939Z</time>
      </trkpt>
      <trkpt lat="43.75688" lon="4.23077">
        <ele>56.589558034216</ele>
        <time>2025-05-30T08:35:55.360Z</time>
      </trkpt>
      <trkpt lat="43.75679" lon="4.23071">
        <ele>56.354384770489</ele>
        <time>2025-05-30T08:36:00.932Z</time>
      </trkpt>
      <trkpt lat="43.75676" lon="4.2306">
        <ele>55.379627683128</ele>
        <time>2025-05-30T08:36:06.342Z</time>
      </trkpt>
      <trkpt lat="43.75671" lon="4.23052">
        <ele>54.934904473005</ele>
        <time>2025-05-30T08:36:11.625Z</time>
      </trkpt>
      <trkpt lat="43.75668" lon="4.23043">
        <ele>54.385091822799</ele>
        <time>2025-05-30T08:36:16.738Z</time>
      </trkpt>
      <trkpt lat="43.75665" lon="4.23036">
        <ele>54.23542237219</ele>
        <time>2025-05-30T08:36:22.057Z</time>
      </trkpt>
      <trkpt lat="43.7566" lon="4.2303">
        <ele>54.026811331666</ele>
        <time>2025-05-30T08:36:27.420Z</time>
      </trkpt>
      <trkpt lat="43.75654" lon="4.23026">
        <ele>53.852312519253</ele>
        <time>2025-05-30T08:36:32.838Z</time>
      </trkpt>
      <trkpt lat="43.75647" lon="4.2302">
        <ele>53.722648728766</ele>
        <time>2025-05-30T08:36:38.247Z</time>
      </trkpt>
      <trkpt lat="43.75641" lon="4.23017">
        <ele>53.697204266791</ele>
        <time>2025-05-30T08:36:43.944Z</time>
      </trkpt>
      <trkpt lat="43.75634" lon="4.23015">
        <ele>53.672942921244</ele>
        <time>2025-05-30T08:36:49.398Z</time>
      </trkpt>
      <trkpt lat="43.75628" lon="4.2301">
        <ele>53.541416427131</ele>
        <time>2025-05-30T08:36:54.621Z</time>
      </trkpt>
      <trkpt lat="43.75628" lon="4.23006">
        <ele>53.286956413296</ele>
        <time>2025-05-30T08:36:59.954Z</time>
      </trkpt>
      <trkpt lat="43.75628" lon="4.23007">
        <ele>53.348768770302</ele>
        <time>2025-05-30T08:37:05.931Z</time>
      </trkpt>
      <trkpt lat="43.75627" lon="4.23008">
        <ele>53.407100244285</ele>
        <time>2025-05-30T08:37:18.814Z</time>
      </trkpt>
      <trkpt lat="43.75623" lon="4.23006">
        <ele>53.429904779082</ele>
        <time>2025-05-30T08:37:24.300Z</time>
      </trkpt>
      <trkpt lat="43.75619" lon="4.22999">
        <ele>53.101265510583</ele>
        <time>2025-05-30T08:37:29.947Z</time>
      </trkpt>
      <trkpt lat="43.75612" lon="4.22995">
        <ele>53.043477968176</ele>
        <time>2025-05-30T08:37:35.925Z</time>
      </trkpt>
      <trkpt lat="43.75606" lon="4.2299">
        <ele>52.838143305991</ele>
        <time>2025-05-30T08:37:41.325Z</time>
      </trkpt>
      <trkpt lat="43.756" lon="4.22985">
        <ele>52.761141448062</ele>
        <time>2025-05-30T08:37:46.597Z</time>
      </trkpt>
      <trkpt lat="43.75595" lon="4.22979">
        <ele>52.462019663949</ele>
        <time>2025-05-30T08:37:51.660Z</time>
      </trkpt>
      <trkpt lat="43.75589" lon="4.22978">
        <ele>52.49557825884</ele>
        <time>2025-05-30T08:37:57.138Z</time>
      </trkpt>
      <trkpt lat="43.75584" lon="4.22975">
        <ele>52.300523207991</ele>
        <time>2025-05-30T08:38:02.599Z</time>
      </trkpt>
      <trkpt lat="43.75578" lon="4.2297">
        <ele>52.202746356381</ele>
        <time>2025-05-30T08:38:07.980Z</time>
      </trkpt>
      <trkpt lat="43.7557" lon="4.22966">
        <ele>52.109886398567</ele>
        <time>2025-05-30T08:38:13.862Z</time>
      </trkpt>
      <trkpt lat="43.75562" lon="4.22962">
        <ele>51.889337308967</ele>
        <time>2025-05-30T08:38:19.883Z</time>
      </trkpt>
      <trkpt lat="43.75561" lon="4.22951">
        <ele>51.274945893086</ele>
        <time>2025-05-30T08:38:25.201Z</time>
      </trkpt>
      <trkpt lat="43.7556" lon="4.22943">
        <ele>50.814563069687</ele>
        <time>2025-05-30T08:38:30.571Z</time>
      </trkpt>
      <trkpt lat="43.75561" lon="4.22934">
        <ele>50.541673368808</ele>
        <time>2025-05-30T08:38:35.908Z</time>
      </trkpt>
      <trkpt lat="43.75559" lon="4.22926">
        <ele>50.349097554373</ele>
        <time>2025-05-30T08:38:40.924Z</time>
      </trkpt>
      <trkpt lat="43.75557" lon="4.22915">
        <ele>50.180727998392</ele>
        <time>2025-05-30T08:38:46.138Z</time>
      </trkpt>
      <trkpt lat="43.75556" lon="4.22904">
        <ele>50.144688325208</ele>
        <time>2025-05-30T08:38:51.217Z</time>
      </trkpt>
      <trkpt lat="43.75555" lon="4.22892">
        <ele>50.303590380238</ele>
        <time>2025-05-30T08:38:56.438Z</time>
      </trkpt>
      <trkpt lat="43.75549" lon="4.2289">
        <ele>50.124625202014</ele>
        <time>2025-05-30T08:39:01.445Z</time>
      </trkpt>
      <trkpt lat="43.75543" lon="4.22892">
        <ele>49.900196501525</ele>
        <time>2025-05-30T08:39:06.861Z</time>
      </trkpt>
      <trkpt lat="43.75538" lon="4.22896">
        <ele>49.723142929117</ele>
        <time>2025-05-30T08:39:11.881Z</time>
      </trkpt>
      <trkpt lat="43.75534" lon="4.22893">
        <ele>49.610856443063</ele>
        <time>2025-05-30T08:39:17.323Z</time>
      </trkpt>
      <trkpt lat="43.75529" lon="4.22889">
        <ele>49.490641539087</ele>
        <time>2025-05-30T08:39:22.385Z</time>
      </trkpt>
      <trkpt lat="43.75528" lon="4.2288">
        <ele>49.697802650378</ele>
        <time>2025-05-30T08:39:27.889Z</time>
      </trkpt>
      <trkpt lat="43.75523" lon="4.22871">
        <ele>49.806180201307</ele>
        <time>2025-05-30T08:39:33.867Z</time>
      </trkpt>
      <trkpt lat="43.75519" lon="4.22866">
        <ele>49.949846115207</ele>
        <time>2025-05-30T08:39:39.018Z</time>
      </trkpt>
      <trkpt lat="43.75517" lon="4.2286">
        <ele>50.178309564013</ele>
        <time>2025-05-30T08:39:44.159Z</time>
      </trkpt>
      <trkpt lat="43.75517" lon="4.22853">
        <ele>50.50289180434</ele>
        <time>2025-05-30T08:39:49.400Z</time>
      </trkpt>
      <trkpt lat="43.75518" lon="4.22845">
        <ele>51.004930299279</ele>
        <time>2025-05-30T08:39:54.507Z</time>
      </trkpt>
      <trkpt lat="43.7552" lon="4.22835">
        <ele>51.601688340327</ele>
        <time>2025-05-30T08:39:59.638Z</time>
      </trkpt>
      <trkpt lat="43.75517" lon="4.22826">
        <ele>52.194296069912</ele>
        <time>2025-05-30T08:40:05.240Z</time>
      </trkpt>
      <trkpt lat="43.75515" lon="4.2282">
        <ele>52.583453326879</ele>
        <time>2025-05-30T08:40:10.741Z</time>
      </trkpt>
      <trkpt lat="43.75513" lon="4.22818">
        <ele>52.77366114631</ele>
        <time>2025-05-30T08:40:16.380Z</time>
      </trkpt>
      <trkpt lat="43.75511" lon="4.22815">
        <ele>53.015353345262</ele>
        <time>2025-05-30T08:40:21.645Z</time>
      </trkpt>
      <trkpt lat="43.75511" lon="4.22812">
        <ele>53.337893785431</ele>
        <time>2025-05-30T08:40:26.882Z</time>
      </trkpt>
      <trkpt lat="43.75512" lon="4.22805">
        <ele>54.084145105572</ele>
        <time>2025-05-30T08:40:32.573Z</time>
      </trkpt>
      <trkpt lat="43.75512" lon="4.2279">
        <ele>56.081246127866</ele>
        <time>2025-05-30T08:40:38.321Z</time>
      </trkpt>
      <trkpt lat="43.75517" lon="4.22781">
        <ele>57.350299130754</ele>
        <time>2025-05-30T08:40:43.888Z</time>
      </trkpt>
      <trkpt lat="43.75515" lon="4.22773">
        <ele>58.208149723357</ele>
        <time>2025-05-30T08:40:49.102Z</time>
      </trkpt>
      <trkpt lat="43.75514" lon="4.22767">
        <ele>58.979647018807</ele>
        <time>2025-05-30T08:40:54.804Z</time>
      </trkpt>
      <trkpt lat="43.7551" lon="4.22763">
        <ele>59.295434953669</ele>
        <time>2025-05-30T08:41:00.203Z</time>
      </trkpt>
      <trkpt lat="43.75504" lon="4.22761">
        <ele>59.546376215728</ele>
        <time>2025-05-30T08:41:05.940Z</time>
      </trkpt>
      <trkpt lat="43.75499" lon="4.22756">
        <ele>59.933521713231</ele>
        <time>2025-05-30T08:41:11.242Z</time>
      </trkpt>
      <trkpt lat="43.75495" lon="4.22749">
        <ele>60.321019786504</ele>
        <time>2025-05-30T08:41:16.580Z</time>
      </trkpt>
      <trkpt lat="43.75496" lon="4.22741">
        <ele>60.179272177277</ele>
        <time>2025-05-30T08:41:21.895Z</time>
      </trkpt>
      <trkpt lat="43.75497" lon="4.22733">
        <ele>59.966799545864</ele>
        <time>2025-05-30T08:41:27.446Z</time>
      </trkpt>
      <trkpt lat="43.75492" lon="4.22726">
        <ele>59.450759038695</ele>
        <time>2025-05-30T08:41:32.561Z</time>
      </trkpt>
      <trkpt lat="43.75487" lon="4.22723">
        <ele>59.201716325058</ele>
        <time>2025-05-30T08:41:37.561Z</time>
      </trkpt>
      <trkpt lat="43.75481" lon="4.2272">
        <ele>59.01766447017</ele>
        <time>2025-05-30T08:41:42.844Z</time>
      </trkpt>
      <trkpt lat="43.75474" lon="4.22716">
        <ele>58.770697277548</ele>
        <time>2025-05-30T08:41:48.903Z</time>
      </trkpt>
      <trkpt lat="43.75469" lon="4.22712">
        <ele>58.372334480154</ele>
        <time>2025-05-30T08:41:53.918Z</time>
      </trkpt>
      <trkpt lat="43.75465" lon="4.22707">
        <ele>57.881214603495</ele>
        <time>2025-05-30T08:41:58.935Z</time>
      </trkpt>
      <trkpt lat="43.75467" lon="4.227">
        <ele>57.17110354273</ele>
        <time>2025-05-30T08:42:04.922Z</time>
      </trkpt>
      <trkpt lat="43.75467" lon="4.22691">
        <ele>56.270288294929</ele>
        <time>2025-05-30T08:42:10.695Z</time>
      </trkpt>
      <trkpt lat="43.75463" lon="4.22687">
        <ele>55.889262327421</ele>
        <time>2025-05-30T08:42:15.934Z</time>
      </trkpt>
      <trkpt lat="43.75459" lon="4.22679">
        <ele>55.197456713771</ele>
        <time>2025-05-30T08:42:21.604Z</time>
      </trkpt>
      <trkpt lat="43.75454" lon="4.22673">
        <ele>54.550762013646</ele>
        <time>2025-05-30T08:42:26.715Z</time>
      </trkpt>
      <trkpt lat="43.7545" lon="4.22668">
        <ele>54.024882732776</ele>
        <time>2025-05-30T08:42:31.827Z</time>
      </trkpt>
      <trkpt lat="43.75445" lon="4.22664">
        <ele>53.715081631896</ele>
        <time>2025-05-30T08:42:36.876Z</time>
      </trkpt>
      <trkpt lat="43.7544" lon="4.22661">
        <ele>53.553352233177</ele>
        <time>2025-05-30T08:42:42.419Z</time>
      </trkpt>
      <trkpt lat="43.75435" lon="4.22658">
        <ele>53.350776460628</ele>
        <time>2025-05-30T08:42:47.731Z</time>
      </trkpt>
      <trkpt lat="43.75431" lon="4.22653">
        <ele>52.952808099733</ele>
        <time>2025-05-30T08:42:53.213Z</time>
      </trkpt>
      <trkpt lat="43.75426" lon="4.22646">
        <ele>52.525763973222</ele>
        <time>2025-05-30T08:42:58.674Z</time>
      </trkpt>
      <trkpt lat="43.75423" lon="4.22639">
        <ele>52.280556768718</ele>
        <time>2025-05-30T08:43:03.849Z</time>
      </trkpt>
      <trkpt lat="43.75419" lon="4.22628">
        <ele>51.945541361203</ele>
        <time>2025-05-30T08:43:09.827Z</time>
      </trkpt>
      <trkpt lat="43.75415" lon="4.22622">
        <ele>51.782545472297</ele>
        <time>2025-05-30T08:43:15.414Z</time>
      </trkpt>
      <trkpt lat="43.75409" lon="4.22616">
        <ele>51.63042344026</ele>
        <time>2025-05-30T08:43:20.574Z</time>
      </trkpt>
      <trkpt lat="43.75406" lon="4.22607">
        <ele>51.533800436442</ele>
        <time>2025-05-30T08:43:25.945Z</time>
      </trkpt>
      <trkpt lat="43.75405" lon="4.22597">
        <ele>51.485905412366</ele>
        <time>2025-05-30T08:43:31.479Z</time>
      </trkpt>
      <trkpt lat="43.75399" lon="4.22595">
        <ele>51.451976537681</ele>
        <time>2025-05-30T08:43:36.932Z</time>
      </trkpt>
      <trkpt lat="43.75395" lon="4.22589">
        <ele>51.488543921293</ele>
        <time>2025-05-30T08:43:42.393Z</time>
      </trkpt>
      <trkpt lat="43.75394" lon="4.22579">
        <ele>51.573603388707</ele>
        <time>2025-05-30T08:43:47.776Z</time>
      </trkpt>
      <trkpt lat="43.75394" lon="4.22572">
        <ele>51.718349790377</ele>
        <time>2025-05-30T08:43:52.838Z</time>
      </trkpt>
      <trkpt lat="43.7539" lon="4.22567">
        <ele>51.859857561995</ele>
        <time>2025-05-30T08:43:57.918Z</time>
      </trkpt>
      <trkpt lat="43.75385" lon="4.22568">
        <ele>51.898232115453</ele>
        <time>2025-05-30T08:44:03.856Z</time>
      </trkpt>
      <trkpt lat="43.75384" lon="4.22569">
        <ele>51.894100336744</ele>
        <time>2025-05-30T08:44:08.873Z</time>
      </trkpt>
      <trkpt lat="43.75376" lon="4.2257">
        <ele>51.959177405594</ele>
        <time>2025-05-30T08:44:14.141Z</time>
      </trkpt>
      <trkpt lat="43.7537" lon="4.2257">
        <ele>52.037217507949</ele>
        <time>2025-05-30T08:44:19.257Z</time>
      </trkpt>
      <trkpt lat="43.75364" lon="4.22569">
        <ele>52.137943415389</ele>
        <time>2025-05-30T08:44:24.317Z</time>
      </trkpt>
      <trkpt lat="43.75359" lon="4.22573">
        <ele>52.036407619841</ele>
        <time>2025-05-30T08:44:29.523Z</time>
      </trkpt>
      <trkpt lat="43.75353" lon="4.22579">
        <ele>51.849052001052</ele>
        <time>2025-05-30T08:44:34.919Z</time>
      </trkpt>
      <trkpt lat="43.75346" lon="4.22583">
        <ele>51.740757219287</ele>
        <time>2025-05-30T08:44:40.963Z</time>
      </trkpt>
      <trkpt lat="43.7534" lon="4.22587">
        <ele>51.618543286667</ele>
        <time>2025-05-30T08:44:46.562Z</time>
      </trkpt>
      <trkpt lat="43.75336" lon="4.22591">
        <ele>51.4846598162</ele>
        <time>2025-05-30T08:44:51.777Z</time>
      </trkpt>
      <trkpt lat="43.75328" lon="4.22595">
        <ele>51.36339964803</ele>
        <time>2025-05-30T08:44:57.399Z</time>
      </trkpt>
      <trkpt lat="43.75321" lon="4.22596">
        <ele>51.297910388843</ele>
        <time>2025-05-30T08:45:02.903Z</time>
      </trkpt>
      <trkpt lat="43.75316" lon="4.22588">
        <ele>51.509083563374</ele>
        <time>2025-05-30T08:45:08.438Z</time>
      </trkpt>
      <trkpt lat="43.75317" lon="4.22577">
        <ele>51.883189330602</ele>
        <time>2025-05-30T08:45:13.535Z</time>
      </trkpt>
      <trkpt lat="43.75314" lon="4.2257">
        <ele>52.180642975893</ele>
        <time>2025-05-30T08:45:18.899Z</time>
      </trkpt>
      <trkpt lat="43.75309" lon="4.22569">
        <ele>52.236106238635</ele>
        <time>2025-05-30T08:45:24.200Z</time>
      </trkpt>
      <trkpt lat="43.75305" lon="4.22571">
        <ele>52.16702370609</ele>
        <time>2025-05-30T08:45:29.909Z</time>
      </trkpt>
      <trkpt lat="43.75299" lon="4.22572">
        <ele>52.137770704308</ele>
        <time>2025-05-30T08:45:34.918Z</time>
      </trkpt>
      <trkpt lat="43.75292" lon="4.22574">
        <ele>52.141190582829</ele>
        <time>2025-05-30T08:45:40.159Z</time>
      </trkpt>
      <trkpt lat="43.75285" lon="4.2257">
        <ele>52.396749932561</ele>
        <time>2025-05-30T08:45:45.655Z</time>
      </trkpt>
      <trkpt lat="43.75278" lon="4.22568">
        <ele>52.559879361127</ele>
        <time>2025-05-30T08:45:50.831Z</time>
      </trkpt>
      <trkpt lat="43.75271" lon="4.22567">
        <ele>52.607386417928</ele>
        <time>2025-05-30T08:45:55.920Z</time>
      </trkpt>
      <trkpt lat="43.75264" lon="4.22566">
        <ele>52.660443329086</ele>
        <time>2025-05-30T08:46:01.541Z</time>
      </trkpt>
      <trkpt lat="43.75259" lon="4.22567">
        <ele>52.557886759117</ele>
        <time>2025-05-30T08:46:06.701Z</time>
      </trkpt>
      <trkpt lat="43.75252" lon="4.22568">
        <ele>52.321495058537</ele>
        <time>2025-05-30T08:46:12.082Z</time>
      </trkpt>
      <trkpt lat="43.75244" lon="4.22569">
        <ele>52.039190940076</ele>
        <time>2025-05-30T08:46:17.679Z</time>
      </trkpt>
      <trkpt lat="43.75237" lon="4.22564">
        <ele>52.115790267426</ele>
        <time>2025-05-30T08:46:23.201Z</time>
      </trkpt>
      <trkpt lat="43.75232" lon="4.22556">
        <ele>52.265772827765</ele>
        <time>2025-05-30T08:46:28.201Z</time>
      </trkpt>
      <trkpt lat="43.75228" lon="4.22547">
        <ele>52.57463981277</ele>
        <time>2025-05-30T08:46:33.408Z</time>
      </trkpt>
      <trkpt lat="43.75224" lon="4.22539">
        <ele>52.719956048117</ele>
        <time>2025-05-30T08:46:38.921Z</time>
      </trkpt>
      <trkpt lat="43.75222" lon="4.22533">
        <ele>52.99873931279</ele>
        <time>2025-05-30T08:46:44.841Z</time>
      </trkpt>
      <trkpt lat="43.75222" lon="4.22528">
        <ele>53.299308898747</ele>
        <time>2025-05-30T08:46:49.858Z</time>
      </trkpt>
      <trkpt lat="43.75223" lon="4.2252">
        <ele>53.735938757439</ele>
        <time>2025-05-30T08:46:54.875Z</time>
      </trkpt>
      <trkpt lat="43.75229" lon="4.22514">
        <ele>54.426140389937</ele>
        <time>2025-05-30T08:47:00.108Z</time>
      </trkpt>
      <trkpt lat="43.75234" lon="4.22507">
        <ele>55.284088927489</ele>
        <time>2025-05-30T08:47:05.888Z</time>
      </trkpt>
      <trkpt lat="43.75239" lon="4.22501">
        <ele>56.086155419841</ele>
        <time>2025-05-30T08:47:11.307Z</time>
      </trkpt>
      <trkpt lat="43.75242" lon="4.22493">
        <ele>56.918134678069</ele>
        <time>2025-05-30T08:47:16.769Z</time>
      </trkpt>
      <trkpt lat="43.75245" lon="4.22487">
        <ele>57.643151034337</ele>
        <time>2025-05-30T08:47:21.916Z</time>
      </trkpt>
      <trkpt lat="43.75246" lon="4.22477">
        <ele>58.254552392398</ele>
        <time>2025-05-30T08:47:27.087Z</time>
      </trkpt>
      <trkpt lat="43.75248" lon="4.22468">
        <ele>58.607151479205</ele>
        <time>2025-05-30T08:47:32.470Z</time>
      </trkpt>
      <trkpt lat="43.7525" lon="4.2246">
        <ele>58.951394550028</ele>
        <time>2025-05-30T08:47:37.501Z</time>
      </trkpt>
      <trkpt lat="43.75254" lon="4.22451">
        <ele>59.235133762596</ele>
        <time>2025-05-30T08:47:43.269Z</time>
      </trkpt>
      <trkpt lat="43.75258" lon="4.22446">
        <ele>59.588716370669</ele>
        <time>2025-05-30T08:47:48.922Z</time>
      </trkpt>
      <trkpt lat="43.75258" lon="4.22445">
        <ele>59.580005309254</ele>
        <time>2025-05-30T08:47:54.225Z</time>
      </trkpt>
      <trkpt lat="43.75258" lon="4.22445">
        <ele>59.665715951552</ele>
        <time>2025-05-30T08:47:59.916Z</time>
      </trkpt>
      <trkpt lat="43.75259" lon="4.22443">
        <ele>59.721117896271</ele>
        <time>2025-05-30T08:48:05.486Z</time>
      </trkpt>
      <trkpt lat="43.75262" lon="4.22432">
        <ele>59.940108507821</ele>
        <time>2025-05-30T08:48:10.910Z</time>
      </trkpt>
      <trkpt lat="43.75263" lon="4.22422">
        <ele>59.961865785494</ele>
        <time>2025-05-30T08:48:16.570Z</time>
      </trkpt>
      <trkpt lat="43.75264" lon="4.22413">
        <ele>59.842343469614</ele>
        <time>2025-05-30T08:48:21.649Z</time>
      </trkpt>
      <trkpt lat="43.75263" lon="4.22404">
        <ele>59.603734205712</ele>
        <time>2025-05-30T08:48:26.710Z</time>
      </trkpt>
      <trkpt lat="43.75259" lon="4.22396">
        <ele>58.805368460664</ele>
        <time>2025-05-30T08:48:31.807Z</time>
      </trkpt>
      <trkpt lat="43.75253" lon="4.22394">
        <ele>57.758662071655</ele>
        <time>2025-05-30T08:48:36.848Z</time>
      </trkpt>
      <trkpt lat="43.75248" lon="4.22391">
        <ele>56.850809605372</ele>
        <time>2025-05-30T08:48:41.864Z</time>
      </trkpt>
      <trkpt lat="43.75244" lon="4.22385">
        <ele>56.031777316259</ele>
        <time>2025-05-30T08:48:47.311Z</time>
      </trkpt>
      <trkpt lat="43.7524" lon="4.2238">
        <ele>55.172744365987</ele>
        <time>2025-05-30T08:48:52.752Z</time>
      </trkpt>
      <trkpt lat="43.75234" lon="4.22375">
        <ele>54.297127938072</ele>
        <time>2025-05-30T08:48:57.903Z</time>
      </trkpt>
      <trkpt lat="43.75228" lon="4.22368">
        <ele>53.523769368233</ele>
        <time>2025-05-30T08:49:03.853Z</time>
      </trkpt>
      <trkpt lat="43.75224" lon="4.22361">
        <ele>53.097648669332</ele>
        <time>2025-05-30T08:49:08.869Z</time>
      </trkpt>
      <trkpt lat="43.75223" lon="4.22355">
        <ele>52.925565145925</ele>
        <time>2025-05-30T08:49:13.925Z</time>
      </trkpt>
      <trkpt lat="43.75226" lon="4.22344">
        <ele>53.222987041133</ele>
        <time>2025-05-30T08:49:19.863Z</time>
      </trkpt>
      <trkpt lat="43.75229" lon="4.22334">
        <ele>53.258158730259</ele>
        <time>2025-05-30T08:49:25.549Z</time>
      </trkpt>
      <trkpt lat="43.75232" lon="4.22325">
        <ele>53.069787778069</ele>
        <time>2025-05-30T08:49:31.190Z</time>
      </trkpt>
      <trkpt lat="43.75237" lon="4.22318">
        <ele>52.734605771294</ele>
        <time>2025-05-30T08:49:36.251Z</time>
      </trkpt>
      <trkpt lat="43.75238" lon="4.22312">
        <ele>52.081999591835</ele>
        <time>2025-05-30T08:49:41.286Z</time>
      </trkpt>
      <trkpt lat="43.75238" lon="4.22306">
        <ele>51.353805402105</ele>
        <time>2025-05-30T08:49:46.427Z</time>
      </trkpt>
      <trkpt lat="43.75242" lon="4.22299">
        <ele>50.552599817268</ele>
        <time>2025-05-30T08:49:51.709Z</time>
      </trkpt>
      <trkpt lat="43.75247" lon="4.22292">
        <ele>49.63568105224</ele>
        <time>2025-05-30T08:49:56.901Z</time>
      </trkpt>
      <trkpt lat="43.75247" lon="4.22284">
        <ele>48.613291660592</ele>
        <time>2025-05-30T08:50:02.409Z</time>
      </trkpt>
      <trkpt lat="43.75243" lon="4.22276">
        <ele>47.711942028218</ele>
        <time>2025-05-30T08:50:07.895Z</time>
      </trkpt>
      <trkpt lat="43.75237" lon="4.2227">
        <ele>47.203120120923</ele>
        <time>2025-05-30T08:50:13.305Z</time>
      </trkpt>
      <trkpt lat="43.75233" lon="4.22263">
        <ele>46.493615089702</ele>
        <time>2025-05-30T08:50:18.890Z</time>
      </trkpt>
      <trkpt lat="43.7523" lon="4.22252">
        <ele>45.245405931005</ele>
        <time>2025-05-30T08:50:24.866Z</time>
      </trkpt>
      <trkpt lat="43.75228" lon="4.22242">
        <ele>44.252275300934</ele>
        <time>2025-05-30T08:50:30.072Z</time>
      </trkpt>
      <trkpt lat="43.75226" lon="4.22232">
        <ele>43.283251085662</ele>
        <time>2025-05-30T08:50:35.861Z</time>
      </trkpt>
      <trkpt lat="43.75223" lon="4.22224">
        <ele>42.517777524883</ele>
        <time>2025-05-30T08:50:41.369Z</time>
      </trkpt>
      <trkpt lat="43.75217" lon="4.22216">
        <ele>41.830681392408</ele>
        <time>2025-05-30T08:50:46.873Z</time>
      </trkpt>
      <trkpt lat="43.75212" lon="4.22211">
        <ele>41.434856414265</ele>
        <time>2025-05-30T08:50:51.926Z</time>
      </trkpt>
      <trkpt lat="43.75205" lon="4.2221">
        <ele>41.119159057227</ele>
        <time>2025-05-30T08:50:57.468Z</time>
      </trkpt>
      <trkpt lat="43.75199" lon="4.2221">
        <ele>40.940871357927</ele>
        <time>2025-05-30T08:51:02.572Z</time>
      </trkpt>
      <trkpt lat="43.75193" lon="4.22208">
        <ele>40.785222093505</ele>
        <time>2025-05-30T08:51:08.069Z</time>
      </trkpt>
    </trkseg>
  </trk>
</gpx>